<?xml version="1.0" encoding="UTF-8" standalone="no" ?>
<gpx xmlns="http://www.topografix.com/GPX/1/1" xmlns:xsi="http://www.w3.org/2001/XMLSchema-instance" xsi:schemaLocation="http://www.topografix.com/GPX/1/1 http://www.topografix.com/GPX/1/1/gpx.xsd" version="1.1" creator="VisuGPX - https://www.visugpx.com">
  <metadata>
    <name>Raid 21 PAPh</name>
    <desc><![CDATA[brouillon pour Raid ]]></desc>
  </metadata>
  <trk>
    <name><![CDATA[Légendes oubliées de Cabrerets à Sabadel]]></name>
    <trkseg>
      <trkpt lat="44.55612" lon="1.58436">
        <ele>278.472</ele>
        <time>2021-02-21T08:10:17Z</time>
      </trkpt>
      <trkpt lat="44.55613" lon="1.58437">
        <ele>278.501</ele>
        <time>2021-02-21T08:10:29Z</time>
      </trkpt>
      <trkpt lat="44.55595" lon="1.58428">
        <ele>277.918</ele>
        <time>2021-02-21T08:10:48Z</time>
      </trkpt>
      <trkpt lat="44.554" lon="1.58517">
        <ele>276.328</ele>
        <time>2021-02-21T08:11:26Z</time>
      </trkpt>
      <trkpt lat="44.55321" lon="1.58585">
        <ele>277.13</ele>
        <time>2021-02-21T08:11:57Z</time>
      </trkpt>
      <trkpt lat="44.5533" lon="1.5872">
        <ele>280.749</ele>
        <time>2021-02-21T08:12:28Z</time>
      </trkpt>
      <trkpt lat="44.55299" lon="1.58782">
        <ele>282.434</ele>
        <time>2021-02-21T08:12:46Z</time>
      </trkpt>
      <trkpt lat="44.55214" lon="1.59">
        <ele>293.047</ele>
        <time>2021-02-21T08:13:46Z</time>
      </trkpt>
      <trkpt lat="44.55188" lon="1.59073">
        <ele>294.409</ele>
        <time>2021-02-21T08:14:06Z</time>
      </trkpt>
      <trkpt lat="44.55153" lon="1.59137">
        <ele>295.064</ele>
        <time>2021-02-21T08:14:26Z</time>
      </trkpt>
      <trkpt lat="44.55097" lon="1.59191">
        <ele>297.597</ele>
        <time>2021-02-21T08:14:50Z</time>
      </trkpt>
      <trkpt lat="44.55044" lon="1.59232">
        <ele>299.22</ele>
        <time>2021-02-21T08:15:11Z</time>
      </trkpt>
      <trkpt lat="44.54981" lon="1.59284">
        <ele>300.954</ele>
        <time>2021-02-21T08:15:36Z</time>
      </trkpt>
      <trkpt lat="44.54958" lon="1.59368">
        <ele>305.23</ele>
        <time>2021-02-21T08:15:59Z</time>
      </trkpt>
      <trkpt lat="44.54981" lon="1.5945">
        <ele>306.052</ele>
        <time>2021-02-21T08:16:18Z</time>
      </trkpt>
      <trkpt lat="44.55063" lon="1.59575">
        <ele>305.545</ele>
        <time>2021-02-21T08:16:55Z</time>
      </trkpt>
      <trkpt lat="44.55036" lon="1.59672">
        <ele>301.362</ele>
        <time>2021-02-21T08:17:18Z</time>
      </trkpt>
      <trkpt lat="44.55017" lon="1.59744">
        <ele>299.311</ele>
        <time>2021-02-21T08:17:28Z</time>
      </trkpt>
      <trkpt lat="44.55011" lon="1.59819">
        <ele>295.317</ele>
        <time>2021-02-21T08:17:36Z</time>
      </trkpt>
      <trkpt lat="44.55016" lon="1.59905">
        <ele>290.219</ele>
        <time>2021-02-21T08:17:45Z</time>
      </trkpt>
      <trkpt lat="44.55029" lon="1.59963">
        <ele>287.709</ele>
        <time>2021-02-21T08:17:53Z</time>
      </trkpt>
      <trkpt lat="44.55053" lon="1.60059">
        <ele>283.18</ele>
        <time>2021-02-21T08:18:04Z</time>
      </trkpt>
      <trkpt lat="44.55086" lon="1.60235">
        <ele>275.45</ele>
        <time>2021-02-21T08:18:19Z</time>
      </trkpt>
      <trkpt lat="44.55073" lon="1.60283">
        <ele>275.407</ele>
        <time>2021-02-21T08:18:26Z</time>
      </trkpt>
      <trkpt lat="44.55049" lon="1.60357">
        <ele>273.606</ele>
        <time>2021-02-21T08:18:36Z</time>
      </trkpt>
      <trkpt lat="44.55032" lon="1.60414">
        <ele>267.332</ele>
        <time>2021-02-21T08:18:46Z</time>
      </trkpt>
      <trkpt lat="44.5503" lon="1.60451">
        <ele>262.84</ele>
        <time>2021-02-21T08:18:56Z</time>
      </trkpt>
      <trkpt lat="44.55055" lon="1.60499">
        <ele>268.97</ele>
        <time>2021-02-21T08:19:13Z</time>
      </trkpt>
      <trkpt lat="44.55039" lon="1.60498">
        <ele>267.701</ele>
        <time>2021-02-21T08:19:29Z</time>
      </trkpt>
      <trkpt lat="44.5497" lon="1.6049">
        <ele>264.496</ele>
        <time>2021-02-21T08:19:50Z</time>
      </trkpt>
      <trkpt lat="44.54931" lon="1.60481">
        <ele>263.175</ele>
        <time>2021-02-21T08:20:43Z</time>
      </trkpt>
      <trkpt lat="44.54887" lon="1.60473">
        <ele>262.62</ele>
        <time>2021-02-21T08:20:53Z</time>
      </trkpt>
      <trkpt lat="44.54846" lon="1.60451">
        <ele>260.58</ele>
        <time>2021-02-21T08:21:02Z</time>
      </trkpt>
      <trkpt lat="44.54792" lon="1.6045">
        <ele>259.319</ele>
        <time>2021-02-21T08:21:11Z</time>
      </trkpt>
      <trkpt lat="44.54763" lon="1.60494">
        <ele>258.263</ele>
        <time>2021-02-21T08:21:19Z</time>
      </trkpt>
      <trkpt lat="44.54751" lon="1.60565">
        <ele>257.915</ele>
        <time>2021-02-21T08:21:29Z</time>
      </trkpt>
      <trkpt lat="44.54701" lon="1.60669">
        <ele>256.847</ele>
        <time>2021-02-21T08:21:47Z</time>
      </trkpt>
      <trkpt lat="44.54649" lon="1.60734">
        <ele>253.998</ele>
        <time>2021-02-21T08:21:58Z</time>
      </trkpt>
      <trkpt lat="44.54598" lon="1.60758">
        <ele>251.113</ele>
        <time>2021-02-21T08:22:11Z</time>
      </trkpt>
      <trkpt lat="44.54564" lon="1.6077">
        <ele>250.003</ele>
        <time>2021-02-21T08:22:20Z</time>
      </trkpt>
      <trkpt lat="44.54538" lon="1.60798">
        <ele>251.26</ele>
        <time>2021-02-21T08:22:27Z</time>
      </trkpt>
      <trkpt lat="44.54457" lon="1.60832">
        <ele>245.24</ele>
        <time>2021-02-21T08:22:42Z</time>
      </trkpt>
      <trkpt lat="44.54403" lon="1.60852">
        <ele>240.969</ele>
        <time>2021-02-21T08:22:51Z</time>
      </trkpt>
      <trkpt lat="44.54347" lon="1.60878">
        <ele>240.261</ele>
        <time>2021-02-21T08:23:01Z</time>
      </trkpt>
      <trkpt lat="44.54307" lon="1.60904">
        <ele>236.576</ele>
        <time>2021-02-21T08:23:10Z</time>
      </trkpt>
      <trkpt lat="44.54252" lon="1.60947">
        <ele>236.656</ele>
        <time>2021-02-21T08:23:21Z</time>
      </trkpt>
      <trkpt lat="44.54215" lon="1.61001">
        <ele>231.332</ele>
        <time>2021-02-21T08:23:29Z</time>
      </trkpt>
      <trkpt lat="44.54178" lon="1.61037">
        <ele>222.286</ele>
        <time>2021-02-21T08:23:36Z</time>
      </trkpt>
      <trkpt lat="44.54131" lon="1.61082">
        <ele>221.508</ele>
        <time>2021-02-21T08:23:45Z</time>
      </trkpt>
      <trkpt lat="44.54091" lon="1.61145">
        <ele>220.602</ele>
        <time>2021-02-21T08:23:54Z</time>
      </trkpt>
      <trkpt lat="44.54055" lon="1.61141">
        <ele>218.737</ele>
        <time>2021-02-21T08:24:02Z</time>
      </trkpt>
      <trkpt lat="44.54023" lon="1.61178">
        <ele>217.064</ele>
        <time>2021-02-21T08:24:12Z</time>
      </trkpt>
      <trkpt lat="44.53984" lon="1.61218">
        <ele>214.947</ele>
        <time>2021-02-21T08:24:22Z</time>
      </trkpt>
      <trkpt lat="44.53926" lon="1.61315">
        <ele>203.169</ele>
        <time>2021-02-21T08:24:40Z</time>
      </trkpt>
      <trkpt lat="44.53899" lon="1.61355">
        <ele>198.424</ele>
        <time>2021-02-21T08:24:49Z</time>
      </trkpt>
      <trkpt lat="44.53895" lon="1.61357">
        <ele>198.195</ele>
        <time>2021-02-21T08:25:13Z</time>
      </trkpt>
      <trkpt lat="44.53917" lon="1.61358">
        <ele>199.089</ele>
        <time>2021-02-21T08:25:25Z</time>
      </trkpt>
      <trkpt lat="44.53948" lon="1.61355">
        <ele>199.892</ele>
        <time>2021-02-21T08:32:54Z</time>
      </trkpt>
      <trkpt lat="44.53948" lon="1.61354">
        <ele>199.854</ele>
        <time>2021-02-21T08:33:31Z</time>
      </trkpt>
      <trkpt lat="44.53952" lon="1.61357">
        <ele>200.095</ele>
        <time>2021-02-21T08:34:34Z</time>
      </trkpt>
      <trkpt lat="44.53956" lon="1.61369">
        <ele>200.992</ele>
        <time>2021-02-21T08:35:06Z</time>
      </trkpt>
      <trkpt lat="44.53955" lon="1.6139">
        <ele>202.178</ele>
        <time>2021-02-21T08:35:28Z</time>
      </trkpt>
      <trkpt lat="44.53913" lon="1.61422">
        <ele>199.315</ele>
        <time>2021-02-21T08:35:55Z</time>
      </trkpt>
      <trkpt lat="44.53926" lon="1.61423">
        <ele>201.53</ele>
        <time>2021-02-21T08:36:03Z</time>
      </trkpt>
      <trkpt lat="44.53986" lon="1.61423">
        <ele>206.144</ele>
        <time>2021-02-21T08:36:24Z</time>
      </trkpt>
      <trkpt lat="44.54047" lon="1.61473">
        <ele>211.107</ele>
        <time>2021-02-21T08:36:47Z</time>
      </trkpt>
      <trkpt lat="44.54097" lon="1.61516">
        <ele>215.947</ele>
        <time>2021-02-21T08:37:07Z</time>
      </trkpt>
      <trkpt lat="44.54144" lon="1.61549">
        <ele>220.825</ele>
        <time>2021-02-21T08:37:23Z</time>
      </trkpt>
      <trkpt lat="44.5419" lon="1.61554">
        <ele>221.801</ele>
        <time>2021-02-21T08:37:36Z</time>
      </trkpt>
      <trkpt lat="44.54239" lon="1.61552">
        <ele>220.362</ele>
        <time>2021-02-21T08:37:52Z</time>
      </trkpt>
      <trkpt lat="44.54276" lon="1.616">
        <ele>222.796</ele>
        <time>2021-02-21T08:38:10Z</time>
      </trkpt>
      <trkpt lat="44.54352" lon="1.61605">
        <ele>222.19</ele>
        <time>2021-02-21T08:38:32Z</time>
      </trkpt>
      <trkpt lat="44.54402" lon="1.61559">
        <ele>215.452</ele>
        <time>2021-02-21T08:38:52Z</time>
      </trkpt>
      <trkpt lat="44.54439" lon="1.61669">
        <ele>223.523</ele>
        <time>2021-02-21T08:39:16Z</time>
      </trkpt>
      <trkpt lat="44.54483" lon="1.61761">
        <ele>226.372</ele>
        <time>2021-02-21T08:39:40Z</time>
      </trkpt>
      <trkpt lat="44.54605" lon="1.61738">
        <ele>225.101</ele>
        <time>2021-02-21T08:40:12Z</time>
      </trkpt>
      <trkpt lat="44.54675" lon="1.6173">
        <ele>228.601</ele>
        <time>2021-02-21T08:40:32Z</time>
      </trkpt>
      <trkpt lat="44.54733" lon="1.61828">
        <ele>236.056</ele>
        <time>2021-02-21T08:40:56Z</time>
      </trkpt>
      <trkpt lat="44.54781" lon="1.619">
        <ele>236.01</ele>
        <time>2021-02-21T08:41:16Z</time>
      </trkpt>
      <trkpt lat="44.54779" lon="1.62014">
        <ele>237.107</ele>
        <time>2021-02-21T08:41:40Z</time>
      </trkpt>
      <trkpt lat="44.54759" lon="1.62101">
        <ele>239.59</ele>
        <time>2021-02-21T08:41:59Z</time>
      </trkpt>
      <trkpt lat="44.54789" lon="1.62164">
        <ele>239.14</ele>
        <time>2021-02-21T08:42:12Z</time>
      </trkpt>
      <trkpt lat="44.54871" lon="1.6214">
        <ele>239.58</ele>
        <time>2021-02-21T08:42:33Z</time>
      </trkpt>
      <trkpt lat="44.54906" lon="1.62201">
        <ele>243.733</ele>
        <time>2021-02-21T08:42:47Z</time>
      </trkpt>
      <trkpt lat="44.54949" lon="1.62192">
        <ele>240.349</ele>
        <time>2021-02-21T08:43:15Z</time>
      </trkpt>
      <trkpt lat="44.5493" lon="1.62105">
        <ele>238.75</ele>
        <time>2021-02-21T08:43:41Z</time>
      </trkpt>
      <trkpt lat="44.54864" lon="1.62084">
        <ele>238.884</ele>
        <time>2021-02-21T08:43:57Z</time>
      </trkpt>
      <trkpt lat="44.5482" lon="1.62096">
        <ele>236.102</ele>
        <time>2021-02-21T08:44:05Z</time>
      </trkpt>
      <trkpt lat="44.54801" lon="1.62063">
        <ele>236.215</ele>
        <time>2021-02-21T08:44:18Z</time>
      </trkpt>
      <trkpt lat="44.54838" lon="1.61962">
        <ele>239.889</ele>
        <time>2021-02-21T08:44:37Z</time>
      </trkpt>
      <trkpt lat="44.54814" lon="1.61844">
        <ele>233.29</ele>
        <time>2021-02-21T08:44:58Z</time>
      </trkpt>
      <trkpt lat="44.54765" lon="1.61811">
        <ele>233.164</ele>
        <time>2021-02-21T08:45:08Z</time>
      </trkpt>
      <trkpt lat="44.54744" lon="1.6174">
        <ele>231.049</ele>
        <time>2021-02-21T08:45:25Z</time>
      </trkpt>
      <trkpt lat="44.54717" lon="1.61679">
        <ele>231.199</ele>
        <time>2021-02-21T08:45:36Z</time>
      </trkpt>
      <trkpt lat="44.54671" lon="1.61666">
        <ele>227.952</ele>
        <time>2021-02-21T08:45:50Z</time>
      </trkpt>
      <trkpt lat="44.54597" lon="1.61659">
        <ele>224.807</ele>
        <time>2021-02-21T08:46:09Z</time>
      </trkpt>
      <trkpt lat="44.54548" lon="1.61682">
        <ele>223.759</ele>
        <time>2021-02-21T08:46:23Z</time>
      </trkpt>
      <trkpt lat="44.54483" lon="1.61642">
        <ele>221.168</ele>
        <time>2021-02-21T08:46:40Z</time>
      </trkpt>
      <trkpt lat="44.54467" lon="1.61603">
        <ele>221.263</ele>
        <time>2021-02-21T08:46:53Z</time>
      </trkpt>
      <trkpt lat="44.54456" lon="1.6155">
        <ele>218.726</ele>
        <time>2021-02-21T08:47:42Z</time>
      </trkpt>
      <trkpt lat="44.54404" lon="1.61503">
        <ele>219.078</ele>
        <time>2021-02-21T08:47:58Z</time>
      </trkpt>
      <trkpt lat="44.54369" lon="1.61506">
        <ele>220.338</ele>
        <time>2021-02-21T08:48:08Z</time>
      </trkpt>
      <trkpt lat="44.54357" lon="1.61518">
        <ele>217.795</ele>
        <time>2021-02-21T08:48:33Z</time>
      </trkpt>
      <trkpt lat="44.54307" lon="1.61514">
        <ele>218.338</ele>
        <time>2021-02-21T08:48:48Z</time>
      </trkpt>
      <trkpt lat="44.54278" lon="1.61494">
        <ele>216.081</ele>
        <time>2021-02-21T08:48:56Z</time>
      </trkpt>
      <trkpt lat="44.54226" lon="1.61502">
        <ele>212.865</ele>
        <time>2021-02-21T08:49:08Z</time>
      </trkpt>
      <trkpt lat="44.54193" lon="1.61531">
        <ele>215.891</ele>
        <time>2021-02-21T08:49:19Z</time>
      </trkpt>
      <trkpt lat="44.54098" lon="1.61499">
        <ele>210.389</ele>
        <time>2021-02-21T08:49:48Z</time>
      </trkpt>
      <trkpt lat="44.54027" lon="1.61435">
        <ele>206.51</ele>
        <time>2021-02-21T08:50:08Z</time>
      </trkpt>
      <trkpt lat="44.53958" lon="1.61406">
        <ele>203.374</ele>
        <time>2021-02-21T08:50:31Z</time>
      </trkpt>
      <trkpt lat="44.53964" lon="1.61392">
        <ele>202.602</ele>
        <time>2021-02-21T08:50:44Z</time>
      </trkpt>
      <trkpt lat="44.53958" lon="1.61378">
        <ele>201.619</ele>
        <time>2021-02-21T08:50:53Z</time>
      </trkpt>
      <trkpt lat="44.53957" lon="1.61368">
        <ele>200.976</ele>
        <time>2021-02-21T08:51:10Z</time>
      </trkpt>
      <trkpt lat="44.53951" lon="1.61353">
        <ele>199.904</ele>
        <time>2021-02-21T08:51:25Z</time>
      </trkpt>
      <trkpt lat="44.53874" lon="1.61357">
        <ele>197.232</ele>
        <time>2021-02-21T08:51:47Z</time>
      </trkpt>
      <trkpt lat="44.53813" lon="1.61343">
        <ele>201.624</ele>
        <time>2021-02-21T08:52:02Z</time>
      </trkpt>
      <trkpt lat="44.53774" lon="1.61359">
        <ele>199.287</ele>
        <time>2021-02-21T08:52:15Z</time>
      </trkpt>
      <trkpt lat="44.53694" lon="1.6145">
        <ele>200.224</ele>
        <time>2021-02-21T08:52:34Z</time>
      </trkpt>
      <trkpt lat="44.5367" lon="1.61501">
        <ele>198.819</ele>
        <time>2021-02-21T08:52:43Z</time>
      </trkpt>
      <trkpt lat="44.53623" lon="1.61553">
        <ele>195.905</ele>
        <time>2021-02-21T08:53:04Z</time>
      </trkpt>
      <trkpt lat="44.53531" lon="1.61618">
        <ele>198.928</ele>
        <time>2021-02-21T08:53:26Z</time>
      </trkpt>
      <trkpt lat="44.53497" lon="1.61708">
        <ele>195.895</ele>
        <time>2021-02-21T08:53:38Z</time>
      </trkpt>
      <trkpt lat="44.53456" lon="1.61775">
        <ele>195.356</ele>
        <time>2021-02-21T08:53:52Z</time>
      </trkpt>
      <trkpt lat="44.53413" lon="1.61821">
        <ele>197.163</ele>
        <time>2021-02-21T08:54:03Z</time>
      </trkpt>
      <trkpt lat="44.53378" lon="1.61875">
        <ele>192.552</ele>
        <time>2021-02-21T08:54:14Z</time>
      </trkpt>
      <trkpt lat="44.53348" lon="1.6191">
        <ele>192.673</ele>
        <time>2021-02-21T08:54:28Z</time>
      </trkpt>
      <trkpt lat="44.5333" lon="1.619">
        <ele>196.033</ele>
        <time>2021-02-21T08:54:40Z</time>
      </trkpt>
      <trkpt lat="44.53316" lon="1.61901">
        <ele>198.865</ele>
        <time>2021-02-21T08:54:50Z</time>
      </trkpt>
      <trkpt lat="44.53321" lon="1.61979">
        <ele>193.429</ele>
        <time>2021-02-21T08:55:17Z</time>
      </trkpt>
      <trkpt lat="44.5332" lon="1.62">
        <ele>192.102</ele>
        <time>2021-02-21T08:55:55Z</time>
      </trkpt>
      <trkpt lat="44.53295" lon="1.62088">
        <ele>192.772</ele>
        <time>2021-02-21T08:56:14Z</time>
      </trkpt>
      <trkpt lat="44.53285" lon="1.62146">
        <ele>190.364</ele>
        <time>2021-02-21T08:56:23Z</time>
      </trkpt>
      <trkpt lat="44.53288" lon="1.62244">
        <ele>187.08</ele>
        <time>2021-02-21T08:56:41Z</time>
      </trkpt>
      <trkpt lat="44.53279" lon="1.62303">
        <ele>188.839</ele>
        <time>2021-02-21T08:56:56Z</time>
      </trkpt>
      <trkpt lat="44.53301" lon="1.6236">
        <ele>188.25</ele>
        <time>2021-02-21T08:57:05Z</time>
      </trkpt>
      <trkpt lat="44.53315" lon="1.62414">
        <ele>190.872</ele>
        <time>2021-02-21T08:57:13Z</time>
      </trkpt>
      <trkpt lat="44.5336" lon="1.62491">
        <ele>189.591</ele>
        <time>2021-02-21T08:57:31Z</time>
      </trkpt>
      <trkpt lat="44.53401" lon="1.62502">
        <ele>181.89</ele>
        <time>2021-02-21T08:57:39Z</time>
      </trkpt>
      <trkpt lat="44.53407" lon="1.62614">
        <ele>185.421</ele>
        <time>2021-02-21T08:57:58Z</time>
      </trkpt>
      <trkpt lat="44.53391" lon="1.62746">
        <ele>180.027</ele>
        <time>2021-02-21T08:58:21Z</time>
      </trkpt>
      <trkpt lat="44.53344" lon="1.62879">
        <ele>182.065</ele>
        <time>2021-02-21T08:58:41Z</time>
      </trkpt>
      <trkpt lat="44.53303" lon="1.62985">
        <ele>182.473</ele>
        <time>2021-02-21T08:59:01Z</time>
      </trkpt>
      <trkpt lat="44.53274" lon="1.63034">
        <ele>183.525</ele>
        <time>2021-02-21T08:59:10Z</time>
      </trkpt>
      <trkpt lat="44.53203" lon="1.63092">
        <ele>182.38</ele>
        <time>2021-02-21T08:59:28Z</time>
      </trkpt>
      <trkpt lat="44.5311" lon="1.63095">
        <ele>183.307</ele>
        <time>2021-02-21T08:59:48Z</time>
      </trkpt>
      <trkpt lat="44.53094" lon="1.631">
        <ele>181.895</ele>
        <time>2021-02-21T08:59:57Z</time>
      </trkpt>
      <trkpt lat="44.52979" lon="1.63127">
        <ele>181.391</ele>
        <time>2021-02-21T09:00:26Z</time>
      </trkpt>
      <trkpt lat="44.52888" lon="1.63056">
        <ele>178.344</ele>
        <time>2021-02-21T09:00:51Z</time>
      </trkpt>
      <trkpt lat="44.52845" lon="1.63071">
        <ele>178.357</ele>
        <time>2021-02-21T09:01:15Z</time>
      </trkpt>
      <trkpt lat="44.5282" lon="1.63087">
        <ele>178.219</ele>
        <time>2021-02-21T09:01:29Z</time>
      </trkpt>
      <trkpt lat="44.52779" lon="1.63151">
        <ele>179.938</ele>
        <time>2021-02-21T09:01:49Z</time>
      </trkpt>
      <trkpt lat="44.52746" lon="1.63182">
        <ele>180.471</ele>
        <time>2021-02-21T09:01:58Z</time>
      </trkpt>
      <trkpt lat="44.5268" lon="1.63188">
        <ele>176.668</ele>
        <time>2021-02-21T09:02:14Z</time>
      </trkpt>
      <trkpt lat="44.52656" lon="1.63236">
        <ele>177.628</ele>
        <time>2021-02-21T09:02:24Z</time>
      </trkpt>
      <trkpt lat="44.52629" lon="1.6339">
        <ele>176.643</ele>
        <time>2021-02-21T09:02:49Z</time>
      </trkpt>
      <trkpt lat="44.52585" lon="1.63468">
        <ele>178.941</ele>
        <time>2021-02-21T09:03:04Z</time>
      </trkpt>
      <trkpt lat="44.5252" lon="1.6349">
        <ele>176.118</ele>
        <time>2021-02-21T09:03:19Z</time>
      </trkpt>
      <trkpt lat="44.52507" lon="1.63583">
        <ele>176.645</ele>
        <time>2021-02-21T09:03:33Z</time>
      </trkpt>
      <trkpt lat="44.52479" lon="1.63726">
        <ele>175.945</ele>
        <time>2021-02-21T09:03:54Z</time>
      </trkpt>
      <trkpt lat="44.5245" lon="1.63771">
        <ele>172.266</ele>
        <time>2021-02-21T09:04:03Z</time>
      </trkpt>
      <trkpt lat="44.52412" lon="1.63825">
        <ele>179.759</ele>
        <time>2021-02-21T09:04:16Z</time>
      </trkpt>
      <trkpt lat="44.52435" lon="1.63898">
        <ele>175.189</ele>
        <time>2021-02-21T09:04:28Z</time>
      </trkpt>
      <trkpt lat="44.52435" lon="1.63944">
        <ele>175.421</ele>
        <time>2021-02-21T09:04:37Z</time>
      </trkpt>
      <trkpt lat="44.52445" lon="1.63914">
        <ele>173.439</ele>
        <time>2021-02-21T09:04:57Z</time>
      </trkpt>
      <trkpt lat="44.52418" lon="1.64006">
        <ele>177.676</ele>
        <time>2021-02-21T09:05:47Z</time>
      </trkpt>
      <trkpt lat="44.52409" lon="1.64152">
        <ele>177.84</ele>
        <time>2021-02-21T09:06:10Z</time>
      </trkpt>
      <trkpt lat="44.52376" lon="1.64179">
        <ele>179.842</ele>
        <time>2021-02-21T09:06:19Z</time>
      </trkpt>
      <trkpt lat="44.52339" lon="1.64284">
        <ele>175.587</ele>
        <time>2021-02-21T09:06:36Z</time>
      </trkpt>
      <trkpt lat="44.5233" lon="1.64385">
        <ele>174.416</ele>
        <time>2021-02-21T09:06:50Z</time>
      </trkpt>
      <trkpt lat="44.52332" lon="1.64462">
        <ele>167.523</ele>
        <time>2021-02-21T09:07:01Z</time>
      </trkpt>
      <trkpt lat="44.52354" lon="1.64536">
        <ele>167.09</ele>
        <time>2021-02-21T09:07:19Z</time>
      </trkpt>
      <trkpt lat="44.52341" lon="1.64548">
        <ele>168.79</ele>
        <time>2021-02-21T09:07:28Z</time>
      </trkpt>
      <trkpt lat="44.52317" lon="1.64566">
        <ele>168.17</ele>
        <time>2021-02-21T09:07:40Z</time>
      </trkpt>
      <trkpt lat="44.52302" lon="1.64582">
        <ele>167.377</ele>
        <time>2021-02-21T09:07:49Z</time>
      </trkpt>
      <trkpt lat="44.52288" lon="1.64595">
        <ele>167.841</ele>
        <time>2021-02-21T09:07:57Z</time>
      </trkpt>
      <trkpt lat="44.52216" lon="1.64645">
        <ele>167.226</ele>
        <time>2021-02-21T09:08:20Z</time>
      </trkpt>
      <trkpt lat="44.5215" lon="1.64653">
        <ele>170.556</ele>
        <time>2021-02-21T09:08:42Z</time>
      </trkpt>
      <trkpt lat="44.52111" lon="1.64627">
        <ele>170.297</ele>
        <time>2021-02-21T09:09:02Z</time>
      </trkpt>
      <trkpt lat="44.52076" lon="1.64617">
        <ele>173.379</ele>
        <time>2021-02-21T09:09:25Z</time>
      </trkpt>
      <trkpt lat="44.52043" lon="1.64611">
        <ele>176.124</ele>
        <time>2021-02-21T09:09:46Z</time>
      </trkpt>
      <trkpt lat="44.51992" lon="1.64609">
        <ele>175.013</ele>
        <time>2021-02-21T09:10:05Z</time>
      </trkpt>
      <trkpt lat="44.51919" lon="1.64631">
        <ele>174.539</ele>
        <time>2021-02-21T09:10:20Z</time>
      </trkpt>
      <trkpt lat="44.51856" lon="1.64625">
        <ele>171.795</ele>
        <time>2021-02-21T09:10:33Z</time>
      </trkpt>
      <trkpt lat="44.51805" lon="1.64626">
        <ele>175.048</ele>
        <time>2021-02-21T09:10:52Z</time>
      </trkpt>
      <trkpt lat="44.517" lon="1.64655">
        <ele>178.625</ele>
        <time>2021-02-21T09:11:37Z</time>
      </trkpt>
      <trkpt lat="44.51677" lon="1.64664">
        <ele>179.824</ele>
        <time>2021-02-21T09:11:49Z</time>
      </trkpt>
      <trkpt lat="44.51644" lon="1.64682">
        <ele>182.182</ele>
        <time>2021-02-21T09:12:10Z</time>
      </trkpt>
      <trkpt lat="44.51614" lon="1.64706">
        <ele>183.944</ele>
        <time>2021-02-21T09:12:30Z</time>
      </trkpt>
      <trkpt lat="44.51585" lon="1.64751">
        <ele>184.42</ele>
        <time>2021-02-21T09:13:34Z</time>
      </trkpt>
      <trkpt lat="44.5153" lon="1.64824">
        <ele>187.04</ele>
        <time>2021-02-21T09:13:55Z</time>
      </trkpt>
      <trkpt lat="44.51469" lon="1.6487">
        <ele>191.24</ele>
        <time>2021-02-21T09:14:28Z</time>
      </trkpt>
      <trkpt lat="44.51448" lon="1.64897">
        <ele>191.317</ele>
        <time>2021-02-21T09:14:41Z</time>
      </trkpt>
      <trkpt lat="44.51445" lon="1.64943">
        <ele>190.24</ele>
        <time>2021-02-21T09:15:18Z</time>
      </trkpt>
      <trkpt lat="44.51444" lon="1.64992">
        <ele>190.838</ele>
        <time>2021-02-21T09:15:25Z</time>
      </trkpt>
      <trkpt lat="44.51431" lon="1.64976">
        <ele>188.008</ele>
        <time>2021-02-21T09:15:32Z</time>
      </trkpt>
      <trkpt lat="44.51412" lon="1.64946">
        <ele>183.714</ele>
        <time>2021-02-21T09:15:39Z</time>
      </trkpt>
      <trkpt lat="44.51388" lon="1.64892">
        <ele>177.468</ele>
        <time>2021-02-21T09:15:48Z</time>
      </trkpt>
      <trkpt lat="44.51354" lon="1.64863">
        <ele>169.174</ele>
        <time>2021-02-21T09:15:58Z</time>
      </trkpt>
      <trkpt lat="44.51311" lon="1.64864">
        <ele>169.995</ele>
        <time>2021-02-21T09:16:06Z</time>
      </trkpt>
      <trkpt lat="44.51268" lon="1.64866">
        <ele>168.403</ele>
        <time>2021-02-21T09:16:13Z</time>
      </trkpt>
      <trkpt lat="44.51219" lon="1.64843">
        <ele>156.915</ele>
        <time>2021-02-21T09:16:25Z</time>
      </trkpt>
      <trkpt lat="44.51203" lon="1.64811">
        <ele>158.815</ele>
        <time>2021-02-21T09:16:31Z</time>
      </trkpt>
      <trkpt lat="44.51152" lon="1.64817">
        <ele>165.347</ele>
        <time>2021-02-21T09:16:52Z</time>
      </trkpt>
      <trkpt lat="44.51093" lon="1.64893">
        <ele>157.465</ele>
        <time>2021-02-21T09:17:21Z</time>
      </trkpt>
      <trkpt lat="44.51096" lon="1.64878">
        <ele>160.159</ele>
        <time>2021-02-21T09:17:32Z</time>
      </trkpt>
      <trkpt lat="44.51135" lon="1.64825">
        <ele>166.412</ele>
        <time>2021-02-21T09:17:57Z</time>
      </trkpt>
      <trkpt lat="44.51165" lon="1.64796">
        <ele>167.492</ele>
        <time>2021-02-21T09:18:13Z</time>
      </trkpt>
      <trkpt lat="44.5121" lon="1.64768">
        <ele>164.834</ele>
        <time>2021-02-21T09:18:33Z</time>
      </trkpt>
      <trkpt lat="44.51236" lon="1.64749">
        <ele>165.4</ele>
        <time>2021-02-21T09:18:46Z</time>
      </trkpt>
      <trkpt lat="44.51246" lon="1.6473">
        <ele>171.09</ele>
        <time>2021-02-21T09:18:59Z</time>
      </trkpt>
      <trkpt lat="44.51251" lon="1.64719">
        <ele>175.07</ele>
        <time>2021-02-21T09:22:27Z</time>
      </trkpt>
      <trkpt lat="44.51284" lon="1.64742">
        <ele>170.414</ele>
        <time>2021-02-21T09:22:42Z</time>
      </trkpt>
      <trkpt lat="44.51337" lon="1.64722">
        <ele>168.932</ele>
        <time>2021-02-21T09:23:04Z</time>
      </trkpt>
      <trkpt lat="44.51375" lon="1.64687">
        <ele>174.514</ele>
        <time>2021-02-21T09:23:23Z</time>
      </trkpt>
      <trkpt lat="44.51421" lon="1.64667">
        <ele>178.951</ele>
        <time>2021-02-21T09:23:43Z</time>
      </trkpt>
      <trkpt lat="44.51461" lon="1.64642">
        <ele>182.589</ele>
        <time>2021-02-21T09:24:03Z</time>
      </trkpt>
      <trkpt lat="44.51433" lon="1.64642">
        <ele>186.36</ele>
        <time>2021-02-21T09:24:20Z</time>
      </trkpt>
      <trkpt lat="44.51358" lon="1.6465">
        <ele>192.946</ele>
        <time>2021-02-21T09:25:02Z</time>
      </trkpt>
      <trkpt lat="44.51327" lon="1.64658">
        <ele>194.656</ele>
        <time>2021-02-21T09:25:19Z</time>
      </trkpt>
      <trkpt lat="44.51291" lon="1.64636">
        <ele>197.99</ele>
        <time>2021-02-21T09:25:41Z</time>
      </trkpt>
      <trkpt lat="44.51267" lon="1.6459">
        <ele>203.827</ele>
        <time>2021-02-21T09:26:04Z</time>
      </trkpt>
      <trkpt lat="44.51247" lon="1.64529">
        <ele>209.015</ele>
        <time>2021-02-21T09:26:31Z</time>
      </trkpt>
      <trkpt lat="44.51237" lon="1.64492">
        <ele>211.525</ele>
        <time>2021-02-21T09:26:46Z</time>
      </trkpt>
      <trkpt lat="44.51221" lon="1.64441">
        <ele>215.906</ele>
        <time>2021-02-21T09:27:08Z</time>
      </trkpt>
      <trkpt lat="44.512" lon="1.64391">
        <ele>218.612</ele>
        <time>2021-02-21T09:27:28Z</time>
      </trkpt>
      <trkpt lat="44.51175" lon="1.64342">
        <ele>222.161</ele>
        <time>2021-02-21T09:27:49Z</time>
      </trkpt>
      <trkpt lat="44.51156" lon="1.64296">
        <ele>225.917</ele>
        <time>2021-02-21T09:28:08Z</time>
      </trkpt>
      <trkpt lat="44.51142" lon="1.64248">
        <ele>228.016</ele>
        <time>2021-02-21T09:28:27Z</time>
      </trkpt>
      <trkpt lat="44.51131" lon="1.6419">
        <ele>233.783</ele>
        <time>2021-02-21T09:28:48Z</time>
      </trkpt>
      <trkpt lat="44.51095" lon="1.64132">
        <ele>236.005</ele>
        <time>2021-02-21T09:29:18Z</time>
      </trkpt>
      <trkpt lat="44.51064" lon="1.64173">
        <ele>238.959</ele>
        <time>2021-02-21T09:29:39Z</time>
      </trkpt>
      <trkpt lat="44.51054" lon="1.64225">
        <ele>240.854</ele>
        <time>2021-02-21T09:29:56Z</time>
      </trkpt>
      <trkpt lat="44.51051" lon="1.6428">
        <ele>243.477</ele>
        <time>2021-02-21T09:30:14Z</time>
      </trkpt>
      <trkpt lat="44.51052" lon="1.64336">
        <ele>244.26</ele>
        <time>2021-02-21T09:30:35Z</time>
      </trkpt>
      <trkpt lat="44.51049" lon="1.64389">
        <ele>245.202</ele>
        <time>2021-02-21T09:30:53Z</time>
      </trkpt>
      <trkpt lat="44.51036" lon="1.64447">
        <ele>249.102</ele>
        <time>2021-02-21T09:31:13Z</time>
      </trkpt>
      <trkpt lat="44.51018" lon="1.64484">
        <ele>253.456</ele>
        <time>2021-02-21T09:31:31Z</time>
      </trkpt>
      <trkpt lat="44.50983" lon="1.64518">
        <ele>259.143</ele>
        <time>2021-02-21T09:31:51Z</time>
      </trkpt>
      <trkpt lat="44.5095" lon="1.64537">
        <ele>262.764</ele>
        <time>2021-02-21T09:32:08Z</time>
      </trkpt>
      <trkpt lat="44.50915" lon="1.64538">
        <ele>265.495</ele>
        <time>2021-02-21T09:32:27Z</time>
      </trkpt>
      <trkpt lat="44.50878" lon="1.64521">
        <ele>268.606</ele>
        <time>2021-02-21T09:32:49Z</time>
      </trkpt>
      <trkpt lat="44.50853" lon="1.64501">
        <ele>271.383</ele>
        <time>2021-02-21T09:33:05Z</time>
      </trkpt>
      <trkpt lat="44.50817" lon="1.64466">
        <ele>277.997</ele>
        <time>2021-02-21T09:33:27Z</time>
      </trkpt>
      <trkpt lat="44.50795" lon="1.6445">
        <ele>280.557</ele>
        <time>2021-02-21T09:33:41Z</time>
      </trkpt>
      <trkpt lat="44.50773" lon="1.64435">
        <ele>283.287</ele>
        <time>2021-02-21T09:33:56Z</time>
      </trkpt>
      <trkpt lat="44.50755" lon="1.6443">
        <ele>284.316</ele>
        <time>2021-02-21T09:34:38Z</time>
      </trkpt>
      <trkpt lat="44.50752" lon="1.64427">
        <ele>284.682</ele>
        <time>2021-02-21T09:35:08Z</time>
      </trkpt>
      <trkpt lat="44.50767" lon="1.64421">
        <ele>285.432</ele>
        <time>2021-02-21T09:35:32Z</time>
      </trkpt>
      <trkpt lat="44.50742" lon="1.64431">
        <ele>284.283</ele>
        <time>2021-02-21T09:36:46Z</time>
      </trkpt>
      <trkpt lat="44.50742" lon="1.64437">
        <ele>283.616</ele>
        <time>2021-02-21T09:37:45Z</time>
      </trkpt>
      <trkpt lat="44.50759" lon="1.64485">
        <ele>276.798</ele>
        <time>2021-02-21T09:37:56Z</time>
      </trkpt>
      <trkpt lat="44.50767" lon="1.64536">
        <ele>270.403</ele>
        <time>2021-02-21T09:38:03Z</time>
      </trkpt>
      <trkpt lat="44.50764" lon="1.64611">
        <ele>259.968</ele>
        <time>2021-02-21T09:38:15Z</time>
      </trkpt>
      <trkpt lat="44.5077" lon="1.64662">
        <ele>252.165</ele>
        <time>2021-02-21T09:38:24Z</time>
      </trkpt>
      <trkpt lat="44.50768" lon="1.64694">
        <ele>247.774</ele>
        <time>2021-02-21T09:38:31Z</time>
      </trkpt>
      <trkpt lat="44.50764" lon="1.64726">
        <ele>244.197</ele>
        <time>2021-02-21T09:38:39Z</time>
      </trkpt>
      <trkpt lat="44.50754" lon="1.64767">
        <ele>239.357</ele>
        <time>2021-02-21T09:38:46Z</time>
      </trkpt>
      <trkpt lat="44.5074" lon="1.64811">
        <ele>234.045</ele>
        <time>2021-02-21T09:38:57Z</time>
      </trkpt>
      <trkpt lat="44.5074" lon="1.64826">
        <ele>230.715</ele>
        <time>2021-02-21T09:39:06Z</time>
      </trkpt>
      <trkpt lat="44.50732" lon="1.64865">
        <ele>223.335</ele>
        <time>2021-02-21T09:39:16Z</time>
      </trkpt>
      <trkpt lat="44.50707" lon="1.64913">
        <ele>218.626</ele>
        <time>2021-02-21T09:39:26Z</time>
      </trkpt>
      <trkpt lat="44.50676" lon="1.64958">
        <ele>217.532</ele>
        <time>2021-02-21T09:39:39Z</time>
      </trkpt>
      <trkpt lat="44.50666" lon="1.64992">
        <ele>211.679</ele>
        <time>2021-02-21T09:39:48Z</time>
      </trkpt>
      <trkpt lat="44.50648" lon="1.65019">
        <ele>211.021</ele>
        <time>2021-02-21T09:39:58Z</time>
      </trkpt>
      <trkpt lat="44.50626" lon="1.65067">
        <ele>200.171</ele>
        <time>2021-02-21T09:40:44Z</time>
      </trkpt>
      <trkpt lat="44.50599" lon="1.65094">
        <ele>196.365</ele>
        <time>2021-02-21T09:40:53Z</time>
      </trkpt>
      <trkpt lat="44.50578" lon="1.65115">
        <ele>192.527</ele>
        <time>2021-02-21T09:41:01Z</time>
      </trkpt>
      <trkpt lat="44.50557" lon="1.65144">
        <ele>185.073</ele>
        <time>2021-02-21T09:41:10Z</time>
      </trkpt>
      <trkpt lat="44.50534" lon="1.65173">
        <ele>178.311</ele>
        <time>2021-02-21T09:41:17Z</time>
      </trkpt>
      <trkpt lat="44.50512" lon="1.65187">
        <ele>178.039</ele>
        <time>2021-02-21T09:41:24Z</time>
      </trkpt>
      <trkpt lat="44.50507" lon="1.65228">
        <ele>169.897</ele>
        <time>2021-02-21T09:41:34Z</time>
      </trkpt>
      <trkpt lat="44.50517" lon="1.65271">
        <ele>164.988</ele>
        <time>2021-02-21T09:41:43Z</time>
      </trkpt>
      <trkpt lat="44.50526" lon="1.65318">
        <ele>161.614</ele>
        <time>2021-02-21T09:41:49Z</time>
      </trkpt>
      <trkpt lat="44.5054" lon="1.65401">
        <ele>158.373</ele>
        <time>2021-02-21T09:42:07Z</time>
      </trkpt>
      <trkpt lat="44.50559" lon="1.65418">
        <ele>157.973</ele>
        <time>2021-02-21T09:42:28Z</time>
      </trkpt>
      <trkpt lat="44.50565" lon="1.65437">
        <ele>155.868</ele>
        <time>2021-02-21T09:42:41Z</time>
      </trkpt>
      <trkpt lat="44.50563" lon="1.65483">
        <ele>150.706</ele>
        <time>2021-02-21T09:42:56Z</time>
      </trkpt>
      <trkpt lat="44.50563" lon="1.65489">
        <ele>150.264</ele>
        <time>2021-02-21T09:43:05Z</time>
      </trkpt>
      <trkpt lat="44.50551" lon="1.65507">
        <ele>147.823</ele>
      </trkpt>
      <trkpt lat="44.50563" lon="1.65514">
        <ele>148.146</ele>
      </trkpt>
      <trkpt lat="44.50583" lon="1.65519">
        <ele>147.297</ele>
      </trkpt>
      <trkpt lat="44.5058" lon="1.65535">
        <ele>146.678</ele>
        <time>2021-02-21T09:50:17Z</time>
      </trkpt>
      <trkpt lat="44.50567" lon="1.65569">
        <ele>143.586</ele>
        <time>2021-02-21T09:50:24Z</time>
      </trkpt>
      <trkpt lat="44.50556" lon="1.65606">
        <ele>139.146</ele>
        <time>2021-02-21T09:50:33Z</time>
      </trkpt>
      <trkpt lat="44.50616" lon="1.65646">
        <ele>141.032</ele>
        <time>2021-02-21T09:50:52Z</time>
      </trkpt>
      <trkpt lat="44.50717" lon="1.65701">
        <ele>153.274</ele>
        <time>2021-02-21T09:51:44Z</time>
      </trkpt>
      <trkpt lat="44.50688" lon="1.65669">
        <ele>152.751</ele>
        <time>2021-02-21T09:52:00Z</time>
      </trkpt>
      <trkpt lat="44.50656" lon="1.65648">
        <ele>146.759</ele>
        <time>2021-02-21T09:52:15Z</time>
      </trkpt>
      <trkpt lat="44.50641" lon="1.656">
        <ele>160.066</ele>
        <time>2021-02-21T09:52:31Z</time>
      </trkpt>
      <trkpt lat="44.50643" lon="1.65581">
        <ele>158.679</ele>
        <time>2021-02-21T09:52:37Z</time>
      </trkpt>
      <trkpt lat="44.50654" lon="1.65547">
        <ele>158.081</ele>
        <time>2021-02-21T09:52:53Z</time>
      </trkpt>
      <trkpt lat="44.50663" lon="1.65509">
        <ele>160.009</ele>
        <time>2021-02-21T09:53:08Z</time>
      </trkpt>
      <trkpt lat="44.50654" lon="1.65452">
        <ele>150.864</ele>
        <time>2021-02-21T09:53:20Z</time>
      </trkpt>
      <trkpt lat="44.50647" lon="1.65426">
        <ele>152.613</ele>
        <time>2021-02-21T09:53:33Z</time>
      </trkpt>
      <trkpt lat="44.50621" lon="1.65372">
        <ele>149.905</ele>
        <time>2021-02-21T09:53:59Z</time>
      </trkpt>
      <trkpt lat="44.50633" lon="1.65298">
        <ele>153.572</ele>
        <time>2021-02-21T09:54:19Z</time>
      </trkpt>
      <trkpt lat="44.50718" lon="1.6527">
        <ele>167.215</ele>
        <time>2021-02-21T09:54:50Z</time>
      </trkpt>
      <trkpt lat="44.50742" lon="1.65265">
        <ele>172.49</ele>
        <time>2021-02-21T09:54:58Z</time>
      </trkpt>
      <trkpt lat="44.50772" lon="1.65236">
        <ele>175.949</ele>
        <time>2021-02-21T09:55:11Z</time>
      </trkpt>
      <trkpt lat="44.508" lon="1.6519">
        <ele>176.353</ele>
        <time>2021-02-21T09:55:28Z</time>
      </trkpt>
      <trkpt lat="44.50805" lon="1.65112">
        <ele>160.393</ele>
        <time>2021-02-21T09:55:47Z</time>
      </trkpt>
      <trkpt lat="44.50848" lon="1.65023">
        <ele>151.682</ele>
        <time>2021-02-21T09:56:09Z</time>
      </trkpt>
      <trkpt lat="44.50944" lon="1.64953">
        <ele>157.268</ele>
        <time>2021-02-21T09:56:40Z</time>
      </trkpt>
      <trkpt lat="44.51002" lon="1.6494">
        <ele>158.338</ele>
        <time>2021-02-21T09:57:00Z</time>
      </trkpt>
      <trkpt lat="44.51066" lon="1.65015">
        <ele>171.985</ele>
        <time>2021-02-21T09:57:24Z</time>
      </trkpt>
      <trkpt lat="44.51113" lon="1.6499">
        <ele>172.118</ele>
        <time>2021-02-21T09:57:45Z</time>
      </trkpt>
      <trkpt lat="44.51154" lon="1.64955">
        <ele>174.431</ele>
        <time>2021-02-21T09:58:06Z</time>
      </trkpt>
      <trkpt lat="44.51191" lon="1.64918">
        <ele>173.188</ele>
        <time>2021-02-21T09:58:26Z</time>
      </trkpt>
      <trkpt lat="44.5123" lon="1.64887">
        <ele>174.556</ele>
        <time>2021-02-21T09:58:46Z</time>
      </trkpt>
      <trkpt lat="44.51263" lon="1.64878">
        <ele>173.845</ele>
        <time>2021-02-21T09:59:03Z</time>
      </trkpt>
      <trkpt lat="44.51309" lon="1.64894">
        <ele>182.215</ele>
        <time>2021-02-21T09:59:25Z</time>
      </trkpt>
      <trkpt lat="44.51345" lon="1.64897">
        <ele>180.532</ele>
        <time>2021-02-21T09:59:42Z</time>
      </trkpt>
      <trkpt lat="44.51371" lon="1.64925">
        <ele>183.985</ele>
        <time>2021-02-21T09:59:58Z</time>
      </trkpt>
      <trkpt lat="44.51398" lon="1.64976">
        <ele>190.347</ele>
        <time>2021-02-21T10:00:20Z</time>
      </trkpt>
      <trkpt lat="44.51429" lon="1.65019">
        <ele>194.184</ele>
        <time>2021-02-21T10:00:40Z</time>
      </trkpt>
      <trkpt lat="44.51458" lon="1.65063">
        <ele>197.185</ele>
        <time>2021-02-21T10:01:00Z</time>
      </trkpt>
      <trkpt lat="44.51493" lon="1.65113">
        <ele>201.418</ele>
        <time>2021-02-21T10:01:24Z</time>
      </trkpt>
      <trkpt lat="44.51523" lon="1.65162">
        <ele>204.987</ele>
        <time>2021-02-21T10:01:46Z</time>
      </trkpt>
      <trkpt lat="44.51558" lon="1.65213">
        <ele>206.615</ele>
        <time>2021-02-21T10:02:10Z</time>
      </trkpt>
      <trkpt lat="44.51602" lon="1.65284">
        <ele>210.434</ele>
        <time>2021-02-21T10:02:40Z</time>
      </trkpt>
      <trkpt lat="44.51623" lon="1.65322">
        <ele>215.717</ele>
        <time>2021-02-21T10:02:56Z</time>
      </trkpt>
      <trkpt lat="44.51667" lon="1.65379">
        <ele>218.243</ele>
        <time>2021-02-21T10:03:23Z</time>
      </trkpt>
      <trkpt lat="44.51711" lon="1.65414">
        <ele>221.003</ele>
        <time>2021-02-21T10:03:43Z</time>
      </trkpt>
      <trkpt lat="44.51766" lon="1.65426">
        <ele>226.03</ele>
        <time>2021-02-21T10:04:05Z</time>
      </trkpt>
      <trkpt lat="44.51816" lon="1.65455">
        <ele>227.729</ele>
        <time>2021-02-21T10:04:27Z</time>
      </trkpt>
      <trkpt lat="44.51874" lon="1.65505">
        <ele>230.341</ele>
        <time>2021-02-21T10:04:55Z</time>
      </trkpt>
      <trkpt lat="44.5198" lon="1.65585">
        <ele>233.737</ele>
        <time>2021-02-21T10:05:42Z</time>
      </trkpt>
      <trkpt lat="44.52039" lon="1.65638">
        <ele>236.329</ele>
        <time>2021-02-21T10:06:09Z</time>
      </trkpt>
      <trkpt lat="44.52087" lon="1.65684">
        <ele>239.47</ele>
        <time>2021-02-21T10:06:33Z</time>
      </trkpt>
      <trkpt lat="44.52116" lon="1.65728">
        <ele>241.909</ele>
        <time>2021-02-21T10:06:53Z</time>
      </trkpt>
      <trkpt lat="44.52141" lon="1.65768">
        <ele>244.099</ele>
        <time>2021-02-21T10:07:11Z</time>
      </trkpt>
      <trkpt lat="44.52209" lon="1.65869">
        <ele>252.47</ele>
        <time>2021-02-21T10:08:02Z</time>
      </trkpt>
      <trkpt lat="44.5223" lon="1.65906">
        <ele>253.879</ele>
        <time>2021-02-21T10:08:19Z</time>
      </trkpt>
      <trkpt lat="44.52242" lon="1.65961">
        <ele>254.86</ele>
        <time>2021-02-21T10:08:39Z</time>
      </trkpt>
      <trkpt lat="44.5224" lon="1.65986">
        <ele>255.305</ele>
        <time>2021-02-21T10:08:49Z</time>
      </trkpt>
      <trkpt lat="44.52258" lon="1.66045">
        <ele>258.226</ele>
        <time>2021-02-21T10:09:17Z</time>
      </trkpt>
      <trkpt lat="44.52282" lon="1.66086">
        <ele>260.464</ele>
        <time>2021-02-21T10:09:39Z</time>
      </trkpt>
      <trkpt lat="44.52304" lon="1.661">
        <ele>263.912</ele>
        <time>2021-02-21T10:09:56Z</time>
      </trkpt>
      <trkpt lat="44.52323" lon="1.66092">
        <ele>266.096</ele>
        <time>2021-02-21T10:10:10Z</time>
      </trkpt>
      <trkpt lat="44.52351" lon="1.661">
        <ele>269.941</ele>
        <time>2021-02-21T10:10:31Z</time>
      </trkpt>
      <trkpt lat="44.52366" lon="1.6611">
        <ele>272.014</ele>
        <time>2021-02-21T10:10:48Z</time>
      </trkpt>
      <trkpt lat="44.52368" lon="1.66195">
        <ele>273.649</ele>
        <time>2021-02-21T10:13:21Z</time>
      </trkpt>
      <trkpt lat="44.52384" lon="1.66243">
        <ele>272.755</ele>
        <time>2021-02-21T10:13:38Z</time>
      </trkpt>
      <trkpt lat="44.52302" lon="1.66281">
        <ele>270.956</ele>
        <time>2021-02-21T10:14:07Z</time>
      </trkpt>
      <trkpt lat="44.52239" lon="1.66244">
        <ele>267.084</ele>
        <time>2021-02-21T10:14:20Z</time>
      </trkpt>
      <trkpt lat="44.52198" lon="1.66207">
        <ele>266.503</ele>
        <time>2021-02-21T10:14:28Z</time>
      </trkpt>
      <trkpt lat="44.52173" lon="1.66199">
        <ele>267.596</ele>
        <time>2021-02-21T10:14:40Z</time>
      </trkpt>
      <trkpt lat="44.52124" lon="1.66148">
        <ele>270.436</ele>
        <time>2021-02-21T10:15:03Z</time>
      </trkpt>
      <trkpt lat="44.52087" lon="1.66155">
        <ele>273.803</ele>
        <time>2021-02-21T10:15:23Z</time>
      </trkpt>
      <trkpt lat="44.52054" lon="1.66164">
        <ele>275.855</ele>
        <time>2021-02-21T10:15:38Z</time>
      </trkpt>
      <trkpt lat="44.52012" lon="1.6618">
        <ele>278.566</ele>
        <time>2021-02-21T10:16:02Z</time>
      </trkpt>
      <trkpt lat="44.51982" lon="1.66175">
        <ele>281.63</ele>
        <time>2021-02-21T10:16:22Z</time>
      </trkpt>
      <trkpt lat="44.51962" lon="1.66163">
        <ele>284.002</ele>
        <time>2021-02-21T10:16:39Z</time>
      </trkpt>
      <trkpt lat="44.51942" lon="1.66142">
        <ele>287.134</ele>
        <time>2021-02-21T10:16:56Z</time>
      </trkpt>
      <trkpt lat="44.51921" lon="1.66116">
        <ele>289.341</ele>
        <time>2021-02-21T10:17:14Z</time>
      </trkpt>
      <trkpt lat="44.51855" lon="1.66067">
        <ele>294.53</ele>
        <time>2021-02-21T10:17:54Z</time>
      </trkpt>
      <trkpt lat="44.51805" lon="1.66047">
        <ele>295.636</ele>
        <time>2021-02-21T10:18:16Z</time>
      </trkpt>
      <trkpt lat="44.51749" lon="1.66038">
        <ele>294.608</ele>
        <time>2021-02-21T10:19:22Z</time>
      </trkpt>
      <trkpt lat="44.51693" lon="1.66036">
        <ele>292.128</ele>
        <time>2021-02-21T10:19:37Z</time>
      </trkpt>
      <trkpt lat="44.51629" lon="1.6604">
        <ele>288.033</ele>
        <time>2021-02-21T10:19:49Z</time>
      </trkpt>
      <trkpt lat="44.5155" lon="1.66059">
        <ele>284.168</ele>
        <time>2021-02-21T10:20:05Z</time>
      </trkpt>
      <trkpt lat="44.51455" lon="1.66099">
        <ele>278.452</ele>
        <time>2021-02-21T10:20:22Z</time>
      </trkpt>
      <trkpt lat="44.51402" lon="1.66113">
        <ele>272.194</ele>
        <time>2021-02-21T10:20:29Z</time>
      </trkpt>
      <trkpt lat="44.51371" lon="1.66122">
        <ele>268.3</ele>
        <time>2021-02-21T10:20:35Z</time>
      </trkpt>
      <trkpt lat="44.51333" lon="1.6613">
        <ele>263.845</ele>
        <time>2021-02-21T10:21:45Z</time>
      </trkpt>
      <trkpt lat="44.5127" lon="1.66159">
        <ele>255.768</ele>
        <time>2021-02-21T10:21:59Z</time>
      </trkpt>
      <trkpt lat="44.51239" lon="1.66166">
        <ele>251.097</ele>
        <time>2021-02-21T10:22:05Z</time>
      </trkpt>
      <trkpt lat="44.51189" lon="1.66182">
        <ele>243.545</ele>
        <time>2021-02-21T10:22:14Z</time>
      </trkpt>
      <trkpt lat="44.51141" lon="1.66216">
        <ele>237.257</ele>
        <time>2021-02-21T10:22:22Z</time>
      </trkpt>
      <trkpt lat="44.511" lon="1.6623">
        <ele>232.19</ele>
        <time>2021-02-21T10:22:29Z</time>
      </trkpt>
      <trkpt lat="44.51065" lon="1.66232">
        <ele>229.64</ele>
        <time>2021-02-21T10:22:35Z</time>
      </trkpt>
      <trkpt lat="44.51018" lon="1.66245">
        <ele>226.408</ele>
        <time>2021-02-21T10:22:44Z</time>
      </trkpt>
      <trkpt lat="44.5098" lon="1.66289">
        <ele>222.142</ele>
        <time>2021-02-21T10:22:58Z</time>
      </trkpt>
      <trkpt lat="44.50996" lon="1.66299">
        <ele>218.596</ele>
        <time>2021-02-21T10:23:06Z</time>
      </trkpt>
      <trkpt lat="44.50992" lon="1.66312">
        <ele>212.005</ele>
        <time>2021-02-21T10:23:13Z</time>
      </trkpt>
      <trkpt lat="44.50988" lon="1.66318">
        <ele>208.303</ele>
        <time>2021-02-21T10:23:22Z</time>
      </trkpt>
      <trkpt lat="44.50937" lon="1.66332">
        <ele>195.045</ele>
        <time>2021-02-21T10:24:08Z</time>
      </trkpt>
      <trkpt lat="44.50908" lon="1.66323">
        <ele>190.701</ele>
        <time>2021-02-21T10:24:19Z</time>
      </trkpt>
      <trkpt lat="44.50892" lon="1.66358">
        <ele>167.43</ele>
        <time>2021-02-21T10:24:28Z</time>
      </trkpt>
      <trkpt lat="44.50885" lon="1.66358">
        <ele>165.163</ele>
        <time>2021-02-21T10:24:34Z</time>
      </trkpt>
      <trkpt lat="44.50876" lon="1.66306">
        <ele>184.612</ele>
        <time>2021-02-21T10:24:44Z</time>
      </trkpt>
      <trkpt lat="44.50867" lon="1.66324">
        <ele>174.126</ele>
        <time>2021-02-21T10:24:52Z</time>
      </trkpt>
      <trkpt lat="44.50857" lon="1.66269">
        <ele>178.286</ele>
        <time>2021-02-21T10:25:02Z</time>
      </trkpt>
      <trkpt lat="44.50856" lon="1.66232">
        <ele>174.437</ele>
        <time>2021-02-21T10:25:10Z</time>
      </trkpt>
      <trkpt lat="44.50864" lon="1.66183">
        <ele>176.377</ele>
        <time>2021-02-21T10:25:25Z</time>
      </trkpt>
      <trkpt lat="44.50865" lon="1.66173">
        <ele>176.472</ele>
        <time>2021-02-21T10:26:02Z</time>
      </trkpt>
      <trkpt lat="44.50868" lon="1.66119">
        <ele>170.603</ele>
        <time>2021-02-21T10:26:13Z</time>
      </trkpt>
      <trkpt lat="44.50865" lon="1.66119">
        <ele>167.795</ele>
        <time>2021-02-21T10:26:20Z</time>
      </trkpt>
      <trkpt lat="44.50815" lon="1.66171">
        <ele>144.989</ele>
        <time>2021-02-21T10:26:34Z</time>
      </trkpt>
      <trkpt lat="44.50762" lon="1.66264">
        <ele>137.084</ele>
        <time>2021-02-21T10:26:57Z</time>
      </trkpt>
      <trkpt lat="44.50775" lon="1.66374">
        <ele>139.536</ele>
        <time>2021-02-21T10:27:24Z</time>
      </trkpt>
      <trkpt lat="44.50822" lon="1.66393">
        <ele>145.227</ele>
        <time>2021-02-21T10:27:38Z</time>
      </trkpt>
      <trkpt lat="44.50872" lon="1.66407">
        <ele>144.533</ele>
        <time>2021-02-21T10:27:49Z</time>
      </trkpt>
      <trkpt lat="44.50924" lon="1.66411">
        <ele>144.139</ele>
        <time>2021-02-21T10:28:00Z</time>
      </trkpt>
      <trkpt lat="44.50976" lon="1.66406">
        <ele>145.759</ele>
        <time>2021-02-21T10:28:12Z</time>
      </trkpt>
      <trkpt lat="44.51006" lon="1.66421">
        <ele>139.133</ele>
        <time>2021-02-21T10:28:19Z</time>
      </trkpt>
      <trkpt lat="44.51109" lon="1.66545">
        <ele>145.091</ele>
        <time>2021-02-21T10:28:49Z</time>
      </trkpt>
      <trkpt lat="44.51165" lon="1.66652">
        <ele>144.768</ele>
        <time>2021-02-21T10:29:10Z</time>
      </trkpt>
      <trkpt lat="44.51244" lon="1.66834">
        <ele>145.552</ele>
        <time>2021-02-21T10:29:41Z</time>
      </trkpt>
      <trkpt lat="44.51272" lon="1.66961">
        <ele>140.534</ele>
        <time>2021-02-21T10:29:59Z</time>
      </trkpt>
      <trkpt lat="44.51296" lon="1.67086">
        <ele>137.261</ele>
        <time>2021-02-21T10:30:18Z</time>
      </trkpt>
      <trkpt lat="44.51338" lon="1.67136">
        <ele>140.416</ele>
        <time>2021-02-21T10:30:30Z</time>
      </trkpt>
      <trkpt lat="44.51382" lon="1.67119">
        <ele>140.661</ele>
        <time>2021-02-21T10:30:41Z</time>
      </trkpt>
      <trkpt lat="44.51488" lon="1.67086">
        <ele>144.328</ele>
        <time>2021-02-21T10:31:01Z</time>
      </trkpt>
      <trkpt lat="44.51646" lon="1.67051">
        <ele>139.495</ele>
        <time>2021-02-21T10:31:31Z</time>
      </trkpt>
      <trkpt lat="44.51731" lon="1.67049">
        <ele>135.851</ele>
        <time>2021-02-21T10:31:48Z</time>
      </trkpt>
      <trkpt lat="44.51779" lon="1.67045">
        <ele>133.379</ele>
        <time>2021-02-21T10:31:58Z</time>
      </trkpt>
      <trkpt lat="44.5181" lon="1.67036">
        <ele>131.43</ele>
        <time>2021-02-21T10:32:05Z</time>
      </trkpt>
      <trkpt lat="44.51892" lon="1.66998">
        <ele>136.614</ele>
        <time>2021-02-21T10:32:24Z</time>
      </trkpt>
      <trkpt lat="44.51988" lon="1.6698">
        <ele>141.636</ele>
        <time>2021-02-21T10:32:45Z</time>
      </trkpt>
      <trkpt lat="44.52035" lon="1.66985">
        <ele>142.748</ele>
        <time>2021-02-21T10:32:55Z</time>
      </trkpt>
      <trkpt lat="44.52084" lon="1.66995">
        <ele>153.72</ele>
        <time>2021-02-21T10:33:06Z</time>
      </trkpt>
      <trkpt lat="44.52121" lon="1.67024">
        <ele>152.52</ele>
        <time>2021-02-21T10:33:17Z</time>
      </trkpt>
      <trkpt lat="44.52131" lon="1.67054">
        <ele>149.103</ele>
        <time>2021-02-21T10:34:51Z</time>
      </trkpt>
      <trkpt lat="44.52143" lon="1.67124">
        <ele>144.479</ele>
        <time>2021-02-21T10:35:12Z</time>
      </trkpt>
      <trkpt lat="44.52164" lon="1.67197">
        <ele>146.284</ele>
        <time>2021-02-21T10:35:32Z</time>
      </trkpt>
      <trkpt lat="44.52163" lon="1.67258">
        <ele>147.206</ele>
        <time>2021-02-21T10:35:54Z</time>
      </trkpt>
      <trkpt lat="44.52174" lon="1.67307">
        <ele>154.948</ele>
        <time>2021-02-21T10:36:10Z</time>
      </trkpt>
      <trkpt lat="44.52176" lon="1.6729">
        <ele>154.723</ele>
        <time>2021-02-21T10:36:25Z</time>
      </trkpt>
      <trkpt lat="44.52172" lon="1.67255">
        <ele>151.39</ele>
        <time>2021-02-21T10:36:45Z</time>
      </trkpt>
      <trkpt lat="44.52178" lon="1.67233">
        <ele>153.349</ele>
        <time>2021-02-21T10:37:01Z</time>
      </trkpt>
      <trkpt lat="44.5218" lon="1.67215">
        <ele>153.814</ele>
        <time>2021-02-21T10:37:13Z</time>
      </trkpt>
      <trkpt lat="44.52186" lon="1.67202">
        <ele>157.137</ele>
        <time>2021-02-21T10:37:25Z</time>
      </trkpt>
      <trkpt lat="44.522" lon="1.67183">
        <ele>163.006</ele>
        <time>2021-02-21T10:37:44Z</time>
      </trkpt>
      <trkpt lat="44.52218" lon="1.67166">
        <ele>167.226</ele>
        <time>2021-02-21T10:38:07Z</time>
      </trkpt>
      <trkpt lat="44.52256" lon="1.67145">
        <ele>178.617</ele>
        <time>2021-02-21T10:44:38Z</time>
      </trkpt>
      <trkpt lat="44.52274" lon="1.67141">
        <ele>183.785</ele>
        <time>2021-02-21T10:44:58Z</time>
      </trkpt>
      <trkpt lat="44.52303" lon="1.67132">
        <ele>191.401</ele>
        <time>2021-02-21T10:45:31Z</time>
      </trkpt>
      <trkpt lat="44.52333" lon="1.67113">
        <ele>195.981</ele>
        <time>2021-02-21T10:46:22Z</time>
      </trkpt>
      <trkpt lat="44.5236" lon="1.67088">
        <ele>197.448</ele>
        <time>2021-02-21T10:46:47Z</time>
      </trkpt>
      <trkpt lat="44.52374" lon="1.67079">
        <ele>200.242</ele>
        <time>2021-02-21T10:47:00Z</time>
      </trkpt>
      <trkpt lat="44.5239" lon="1.67078">
        <ele>202.756</ele>
        <time>2021-02-21T10:47:11Z</time>
      </trkpt>
      <trkpt lat="44.52413" lon="1.67078">
        <ele>206.429</ele>
        <time>2021-02-21T10:47:30Z</time>
      </trkpt>
      <trkpt lat="44.52434" lon="1.67073">
        <ele>209.458</ele>
        <time>2021-02-21T10:47:46Z</time>
      </trkpt>
      <trkpt lat="44.52482" lon="1.67047">
        <ele>212.177</ele>
        <time>2021-02-21T10:48:27Z</time>
      </trkpt>
      <trkpt lat="44.52529" lon="1.67032">
        <ele>215.387</ele>
        <time>2021-02-21T10:49:07Z</time>
      </trkpt>
      <trkpt lat="44.52565" lon="1.67013">
        <ele>220.919</ele>
        <time>2021-02-21T10:49:40Z</time>
      </trkpt>
      <trkpt lat="44.52574" lon="1.66997">
        <ele>222.343</ele>
        <time>2021-02-21T10:49:57Z</time>
      </trkpt>
      <trkpt lat="44.52612" lon="1.66883">
        <ele>229.901</ele>
        <time>2021-02-21T10:51:01Z</time>
      </trkpt>
      <trkpt lat="44.52631" lon="1.6684">
        <ele>230.823</ele>
        <time>2021-02-21T10:51:19Z</time>
      </trkpt>
      <trkpt lat="44.52634" lon="1.66803">
        <ele>233.315</ele>
        <time>2021-02-21T10:51:38Z</time>
      </trkpt>
      <trkpt lat="44.52633" lon="1.6678">
        <ele>235.487</ele>
        <time>2021-02-21T10:51:51Z</time>
      </trkpt>
      <trkpt lat="44.52635" lon="1.66751">
        <ele>237.437</ele>
        <time>2021-02-21T10:52:05Z</time>
      </trkpt>
      <trkpt lat="44.52635" lon="1.66715">
        <ele>240.123</ele>
        <time>2021-02-21T10:52:22Z</time>
      </trkpt>
      <trkpt lat="44.52636" lon="1.66665">
        <ele>242.369</ele>
        <time>2021-02-21T10:52:48Z</time>
      </trkpt>
      <trkpt lat="44.52611" lon="1.6659">
        <ele>247.985</ele>
        <time>2021-02-21T10:53:20Z</time>
      </trkpt>
      <trkpt lat="44.52588" lon="1.66542">
        <ele>252.323</ele>
        <time>2021-02-21T10:53:45Z</time>
      </trkpt>
      <trkpt lat="44.52573" lon="1.66494">
        <ele>254.756</ele>
        <time>2021-02-21T10:54:05Z</time>
      </trkpt>
      <trkpt lat="44.52551" lon="1.66444">
        <ele>256.535</ele>
        <time>2021-02-21T10:54:30Z</time>
      </trkpt>
      <trkpt lat="44.52538" lon="1.66423">
        <ele>258.784</ele>
        <time>2021-02-21T10:54:43Z</time>
      </trkpt>
      <trkpt lat="44.52527" lon="1.66404">
        <ele>260.064</ele>
        <time>2021-02-21T10:54:55Z</time>
      </trkpt>
      <trkpt lat="44.52517" lon="1.66398">
        <ele>261.028</ele>
        <time>2021-02-21T10:55:05Z</time>
      </trkpt>
      <trkpt lat="44.52496" lon="1.66381">
        <ele>263.403</ele>
        <time>2021-02-21T10:55:22Z</time>
      </trkpt>
      <trkpt lat="44.52488" lon="1.66351">
        <ele>264.516</ele>
        <time>2021-02-21T10:55:38Z</time>
      </trkpt>
      <trkpt lat="44.52471" lon="1.66302">
        <ele>267.165</ele>
        <time>2021-02-21T10:56:04Z</time>
      </trkpt>
      <trkpt lat="44.52449" lon="1.66242">
        <ele>271.719</ele>
        <time>2021-02-21T10:56:32Z</time>
      </trkpt>
      <trkpt lat="44.52456" lon="1.66242">
        <ele>271.679</ele>
        <time>2021-02-21T11:00:33Z</time>
      </trkpt>
      <trkpt lat="44.52574" lon="1.66196">
        <ele>269.156</ele>
        <time>2021-02-21T11:01:43Z</time>
      </trkpt>
      <trkpt lat="44.5261" lon="1.66192">
        <ele>268.842</ele>
        <time>2021-02-21T11:02:16Z</time>
      </trkpt>
      <trkpt lat="44.52663" lon="1.66206">
        <ele>269.065</ele>
        <time>2021-02-21T11:02:40Z</time>
      </trkpt>
      <trkpt lat="44.52703" lon="1.66236">
        <ele>270.202</ele>
        <time>2021-02-21T11:03:01Z</time>
      </trkpt>
      <trkpt lat="44.52719" lon="1.66251">
        <ele>270.845</ele>
        <time>2021-02-21T11:03:35Z</time>
      </trkpt>
      <trkpt lat="44.52754" lon="1.66314">
        <ele>274.903</ele>
        <time>2021-02-21T11:04:11Z</time>
      </trkpt>
      <trkpt lat="44.52755" lon="1.66314">
        <ele>275.039</ele>
        <time>2021-02-21T11:04:24Z</time>
      </trkpt>
      <trkpt lat="44.52774" lon="1.66336">
        <ele>276.843</ele>
        <time>2021-02-21T11:04:45Z</time>
      </trkpt>
      <trkpt lat="44.52783" lon="1.66328">
        <ele>277.93</ele>
        <time>2021-02-21T11:04:57Z</time>
      </trkpt>
      <trkpt lat="44.5279" lon="1.66324">
        <ele>278.765</ele>
        <time>2021-02-21T11:05:05Z</time>
      </trkpt>
      <trkpt lat="44.52807" lon="1.66325">
        <ele>280.692</ele>
        <time>2021-02-21T11:05:20Z</time>
      </trkpt>
      <trkpt lat="44.52836" lon="1.66339">
        <ele>283.46</ele>
        <time>2021-02-21T11:05:42Z</time>
      </trkpt>
      <trkpt lat="44.52858" lon="1.66358">
        <ele>283.942</ele>
        <time>2021-02-21T11:06:02Z</time>
      </trkpt>
      <trkpt lat="44.52877" lon="1.6637">
        <ele>284.958</ele>
        <time>2021-02-21T11:07:28Z</time>
      </trkpt>
      <trkpt lat="44.52909" lon="1.66385">
        <ele>287.06</ele>
        <time>2021-02-21T11:07:46Z</time>
      </trkpt>
      <trkpt lat="44.52942" lon="1.66406">
        <ele>287.635</ele>
        <time>2021-02-21T11:08:07Z</time>
      </trkpt>
      <trkpt lat="44.52998" lon="1.66436">
        <ele>289.266</ele>
        <time>2021-02-21T11:08:31Z</time>
      </trkpt>
      <trkpt lat="44.53035" lon="1.66465">
        <ele>288.347</ele>
        <time>2021-02-21T11:08:56Z</time>
      </trkpt>
      <trkpt lat="44.5303" lon="1.6649">
        <ele>285.635</ele>
        <time>2021-02-21T11:09:09Z</time>
      </trkpt>
      <trkpt lat="44.53055" lon="1.66493">
        <ele>287.768</ele>
        <time>2021-02-21T11:09:29Z</time>
      </trkpt>
      <trkpt lat="44.53082" lon="1.66482">
        <ele>291.859</ele>
        <time>2021-02-21T11:09:53Z</time>
      </trkpt>
      <trkpt lat="44.53097" lon="1.66481">
        <ele>293.637</ele>
        <time>2021-02-21T11:10:06Z</time>
      </trkpt>
      <trkpt lat="44.53111" lon="1.66483">
        <ele>295.332</ele>
        <time>2021-02-21T11:10:19Z</time>
      </trkpt>
      <trkpt lat="44.53122" lon="1.66488">
        <ele>296.756</ele>
        <time>2021-02-21T11:10:30Z</time>
      </trkpt>
      <trkpt lat="44.53131" lon="1.66485">
        <ele>297.89</ele>
        <time>2021-02-21T11:10:46Z</time>
      </trkpt>
      <trkpt lat="44.53135" lon="1.6649">
        <ele>298.673</ele>
        <time>2021-02-21T11:11:02Z</time>
      </trkpt>
      <trkpt lat="44.53132" lon="1.66503">
        <ele>298.735</ele>
        <time>2021-02-21T11:11:17Z</time>
      </trkpt>
      <trkpt lat="44.53124" lon="1.66523">
        <ele>298.068</ele>
        <time>2021-02-21T11:11:41Z</time>
      </trkpt>
      <trkpt lat="44.53091" lon="1.66622">
        <ele>299.133</ele>
        <time>2021-02-21T11:12:06Z</time>
      </trkpt>
      <trkpt lat="44.5303" lon="1.6677">
        <ele>297.298</ele>
        <time>2021-02-21T11:12:40Z</time>
      </trkpt>
      <trkpt lat="44.5301" lon="1.66808">
        <ele>296.043</ele>
        <time>2021-02-21T11:12:56Z</time>
      </trkpt>
      <trkpt lat="44.53018" lon="1.66823">
        <ele>297.971</ele>
        <time>2021-02-21T11:14:15Z</time>
      </trkpt>
      <trkpt lat="44.53036" lon="1.66847">
        <ele>301.444</ele>
        <time>2021-02-21T11:14:34Z</time>
      </trkpt>
      <trkpt lat="44.53047" lon="1.66863">
        <ele>303.45</ele>
        <time>2021-02-21T11:14:48Z</time>
      </trkpt>
      <trkpt lat="44.53057" lon="1.66871">
        <ele>304.924</ele>
        <time>2021-02-21T11:14:57Z</time>
      </trkpt>
      <trkpt lat="44.5307" lon="1.66895">
        <ele>307.034</ele>
        <time>2021-02-21T11:15:15Z</time>
      </trkpt>
      <trkpt lat="44.53083" lon="1.66913">
        <ele>308.215</ele>
        <time>2021-02-21T11:15:29Z</time>
      </trkpt>
      <trkpt lat="44.53097" lon="1.66913">
        <ele>309.803</ele>
        <time>2021-02-21T11:15:41Z</time>
      </trkpt>
      <trkpt lat="44.53111" lon="1.66864">
        <ele>312.097</ele>
        <time>2021-02-21T11:16:04Z</time>
      </trkpt>
      <trkpt lat="44.53133" lon="1.66827">
        <ele>315.474</ele>
        <time>2021-02-21T11:16:26Z</time>
      </trkpt>
      <trkpt lat="44.53194" lon="1.66733">
        <ele>321.742</ele>
        <time>2021-02-21T11:17:22Z</time>
      </trkpt>
      <trkpt lat="44.53219" lon="1.66697">
        <ele>323.353</ele>
        <time>2021-02-21T11:17:41Z</time>
      </trkpt>
      <trkpt lat="44.53275" lon="1.66628">
        <ele>325.944</ele>
        <time>2021-02-21T11:18:16Z</time>
      </trkpt>
      <trkpt lat="44.53341" lon="1.66531">
        <ele>325.838</ele>
        <time>2021-02-21T11:18:42Z</time>
      </trkpt>
      <trkpt lat="44.53402" lon="1.66454">
        <ele>325.859</ele>
        <time>2021-02-21T11:19:08Z</time>
      </trkpt>
      <trkpt lat="44.53444" lon="1.66426">
        <ele>324.5</ele>
        <time>2021-02-21T11:19:39Z</time>
      </trkpt>
      <trkpt lat="44.53461" lon="1.66441">
        <ele>322.355</ele>
        <time>2021-02-21T11:19:54Z</time>
      </trkpt>
      <trkpt lat="44.53509" lon="1.66481">
        <ele>316.381</ele>
        <time>2021-02-21T11:20:04Z</time>
      </trkpt>
      <trkpt lat="44.5356" lon="1.66545">
        <ele>308.593</ele>
        <time>2021-02-21T11:20:14Z</time>
      </trkpt>
      <trkpt lat="44.53609" lon="1.66602">
        <ele>302.946</ele>
        <time>2021-02-21T11:20:23Z</time>
      </trkpt>
      <trkpt lat="44.53676" lon="1.66645">
        <ele>298.428</ele>
        <time>2021-02-21T11:20:31Z</time>
      </trkpt>
      <trkpt lat="44.53718" lon="1.66686">
        <ele>293.958</ele>
        <time>2021-02-21T11:20:37Z</time>
      </trkpt>
      <trkpt lat="44.53763" lon="1.66736">
        <ele>289.763</ele>
        <time>2021-02-21T11:20:44Z</time>
      </trkpt>
      <trkpt lat="44.53795" lon="1.66786">
        <ele>286.71</ele>
        <time>2021-02-21T11:20:51Z</time>
      </trkpt>
      <trkpt lat="44.53863" lon="1.66863">
        <ele>285.486</ele>
        <time>2021-02-21T11:21:06Z</time>
      </trkpt>
      <trkpt lat="44.53963" lon="1.66955">
        <ele>290.154</ele>
        <time>2021-02-21T11:21:37Z</time>
      </trkpt>
      <trkpt lat="44.54014" lon="1.67014">
        <ele>293.767</ele>
        <time>2021-02-21T11:22:00Z</time>
      </trkpt>
      <trkpt lat="44.54065" lon="1.66975">
        <ele>288.208</ele>
        <time>2021-02-21T11:22:13Z</time>
      </trkpt>
      <trkpt lat="44.54117" lon="1.66909">
        <ele>278.774</ele>
        <time>2021-02-21T11:22:22Z</time>
      </trkpt>
      <trkpt lat="44.54146" lon="1.66879">
        <ele>275.976</ele>
        <time>2021-02-21T11:22:29Z</time>
      </trkpt>
      <trkpt lat="44.54168" lon="1.66865">
        <ele>275.92</ele>
        <time>2021-02-21T11:22:36Z</time>
      </trkpt>
      <trkpt lat="44.54174" lon="1.66775">
        <ele>271.837</ele>
        <time>2021-02-21T11:23:06Z</time>
      </trkpt>
      <trkpt lat="44.54183" lon="1.66722">
        <ele>271.51</ele>
        <time>2021-02-21T11:23:31Z</time>
      </trkpt>
      <trkpt lat="44.54212" lon="1.6669">
        <ele>275.587</ele>
        <time>2021-02-21T11:23:50Z</time>
      </trkpt>
      <trkpt lat="44.5423" lon="1.66703">
        <ele>279.959</ele>
        <time>2021-02-21T11:24:07Z</time>
      </trkpt>
      <trkpt lat="44.54247" lon="1.66711">
        <ele>283.128</ele>
        <time>2021-02-21T11:24:21Z</time>
      </trkpt>
      <trkpt lat="44.5428" lon="1.66732">
        <ele>289.28</ele>
        <time>2021-02-21T11:24:50Z</time>
      </trkpt>
      <trkpt lat="44.54299" lon="1.66734">
        <ele>291.468</ele>
        <time>2021-02-21T11:25:04Z</time>
      </trkpt>
      <trkpt lat="44.54359" lon="1.66714">
        <ele>293.943</ele>
        <time>2021-02-21T11:25:17Z</time>
      </trkpt>
      <trkpt lat="44.54425" lon="1.66706">
        <ele>293.027</ele>
        <time>2021-02-21T11:25:43Z</time>
      </trkpt>
      <trkpt lat="44.54465" lon="1.66729">
        <ele>292.213</ele>
        <time>2021-02-21T11:26:19Z</time>
      </trkpt>
      <trkpt lat="44.54471" lon="1.66722">
        <ele>291.966</ele>
        <time>2021-02-21T11:26:49Z</time>
      </trkpt>
      <trkpt lat="44.54472" lon="1.66708">
        <ele>291.969</ele>
        <time>2021-02-21T11:54:30Z</time>
      </trkpt>
      <trkpt lat="44.54477" lon="1.66704">
        <ele>291.909</ele>
        <time>2021-02-21T11:54:43Z</time>
      </trkpt>
      <trkpt lat="44.54496" lon="1.66675">
        <ele>291.673</ele>
        <time>2021-02-21T11:55:11Z</time>
      </trkpt>
      <trkpt lat="44.54503" lon="1.66663">
        <ele>291.624</ele>
        <time>2021-02-21T11:55:24Z</time>
      </trkpt>
      <trkpt lat="44.54505" lon="1.66645">
        <ele>291.529</ele>
        <time>2021-02-21T11:55:39Z</time>
      </trkpt>
      <trkpt lat="44.54507" lon="1.66629">
        <ele>291.483</ele>
        <time>2021-02-21T11:56:00Z</time>
      </trkpt>
      <trkpt lat="44.5452" lon="1.66614">
        <ele>292.237</ele>
        <time>2021-02-21T11:56:19Z</time>
      </trkpt>
      <trkpt lat="44.54537" lon="1.66576">
        <ele>293.453</ele>
        <time>2021-02-21T11:56:32Z</time>
      </trkpt>
      <trkpt lat="44.54544" lon="1.66553">
        <ele>294.193</ele>
        <time>2021-02-21T11:56:55Z</time>
      </trkpt>
      <trkpt lat="44.54565" lon="1.66518">
        <ele>296.723</ele>
        <time>2021-02-21T11:58:56Z</time>
      </trkpt>
      <trkpt lat="44.54613" lon="1.6654">
        <ele>296.547</ele>
        <time>2021-02-21T11:59:19Z</time>
      </trkpt>
      <trkpt lat="44.54603" lon="1.66598">
        <ele>293.96</ele>
        <time>2021-02-21T11:59:37Z</time>
      </trkpt>
      <trkpt lat="44.54559" lon="1.66686">
        <ele>292.113</ele>
        <time>2021-02-21T11:59:58Z</time>
      </trkpt>
      <trkpt lat="44.54547" lon="1.66717">
        <ele>291.57</ele>
        <time>2021-02-21T12:00:20Z</time>
      </trkpt>
      <trkpt lat="44.54493" lon="1.66721">
        <ele>291.515</ele>
        <time>2021-02-21T12:00:37Z</time>
      </trkpt>
      <trkpt lat="44.54479" lon="1.66744">
        <ele>291.549</ele>
        <time>2021-02-21T12:00:55Z</time>
      </trkpt>
      <trkpt lat="44.54459" lon="1.66735">
        <ele>292.527</ele>
        <time>2021-02-21T12:01:10Z</time>
      </trkpt>
      <trkpt lat="44.54416" lon="1.66722">
        <ele>294.305</ele>
        <time>2021-02-21T12:01:30Z</time>
      </trkpt>
      <trkpt lat="44.54341" lon="1.66732">
        <ele>295.11</ele>
        <time>2021-02-21T12:01:53Z</time>
      </trkpt>
      <trkpt lat="44.5426" lon="1.66722">
        <ele>286.001</ele>
        <time>2021-02-21T12:02:08Z</time>
      </trkpt>
      <trkpt lat="44.54201" lon="1.6669">
        <ele>273.138</ele>
        <time>2021-02-21T12:02:16Z</time>
      </trkpt>
      <trkpt lat="44.54166" lon="1.66744">
        <ele>268.243</ele>
        <time>2021-02-21T12:02:28Z</time>
      </trkpt>
      <trkpt lat="44.54164" lon="1.6669">
        <ele>265.314</ele>
        <time>2021-02-21T12:02:35Z</time>
      </trkpt>
      <trkpt lat="44.54179" lon="1.66625">
        <ele>261.367</ele>
        <time>2021-02-21T12:02:42Z</time>
      </trkpt>
      <trkpt lat="44.54222" lon="1.66533">
        <ele>255.385</ele>
        <time>2021-02-21T12:02:56Z</time>
      </trkpt>
      <trkpt lat="44.54199" lon="1.66487">
        <ele>247.37</ele>
        <time>2021-02-21T12:03:02Z</time>
      </trkpt>
      <trkpt lat="44.54195" lon="1.66418">
        <ele>245.219</ele>
        <time>2021-02-21T12:03:09Z</time>
      </trkpt>
      <trkpt lat="44.54173" lon="1.66355">
        <ele>239.91</ele>
        <time>2021-02-21T12:03:16Z</time>
      </trkpt>
      <trkpt lat="44.5414" lon="1.66316">
        <ele>236.388</ele>
        <time>2021-02-21T12:03:22Z</time>
      </trkpt>
      <trkpt lat="44.54115" lon="1.66273">
        <ele>234.977</ele>
        <time>2021-02-21T12:03:28Z</time>
      </trkpt>
      <trkpt lat="44.54108" lon="1.6616">
        <ele>229.372</ele>
        <time>2021-02-21T12:03:39Z</time>
      </trkpt>
      <trkpt lat="44.54098" lon="1.6609">
        <ele>223.69</ele>
        <time>2021-02-21T12:03:46Z</time>
      </trkpt>
      <trkpt lat="44.54056" lon="1.66002">
        <ele>217.265</ele>
        <time>2021-02-21T12:03:56Z</time>
      </trkpt>
      <trkpt lat="44.54041" lon="1.65933">
        <ele>221.56</ele>
        <time>2021-02-21T12:04:05Z</time>
      </trkpt>
      <trkpt lat="44.54005" lon="1.65865">
        <ele>220.712</ele>
        <time>2021-02-21T12:04:17Z</time>
      </trkpt>
      <trkpt lat="44.53959" lon="1.65811">
        <ele>218.622</ele>
        <time>2021-02-21T12:04:28Z</time>
      </trkpt>
      <trkpt lat="44.53921" lon="1.65748">
        <ele>216.879</ele>
        <time>2021-02-21T12:04:39Z</time>
      </trkpt>
      <trkpt lat="44.53915" lon="1.65698">
        <ele>217.131</ele>
        <time>2021-02-21T12:04:46Z</time>
      </trkpt>
      <trkpt lat="44.53918" lon="1.6562">
        <ele>216.144</ele>
        <time>2021-02-21T12:04:56Z</time>
      </trkpt>
      <trkpt lat="44.53896" lon="1.65567">
        <ele>213.491</ele>
        <time>2021-02-21T12:05:05Z</time>
      </trkpt>
      <trkpt lat="44.53849" lon="1.65557">
        <ele>212.249</ele>
        <time>2021-02-21T12:05:14Z</time>
      </trkpt>
      <trkpt lat="44.53805" lon="1.65483">
        <ele>215.569</ele>
        <time>2021-02-21T12:05:32Z</time>
      </trkpt>
      <trkpt lat="44.53786" lon="1.65403">
        <ele>216.048</ele>
        <time>2021-02-21T12:05:43Z</time>
      </trkpt>
      <trkpt lat="44.53766" lon="1.65341">
        <ele>211.672</ele>
        <time>2021-02-21T12:05:56Z</time>
      </trkpt>
      <trkpt lat="44.53743" lon="1.65233">
        <ele>210.272</ele>
        <time>2021-02-21T12:06:15Z</time>
      </trkpt>
      <trkpt lat="44.53714" lon="1.6521">
        <ele>209.632</ele>
        <time>2021-02-21T12:06:23Z</time>
      </trkpt>
      <trkpt lat="44.53684" lon="1.65168">
        <ele>211.569</ele>
        <time>2021-02-21T12:06:33Z</time>
      </trkpt>
      <trkpt lat="44.53634" lon="1.65082">
        <ele>212.378</ele>
        <time>2021-02-21T12:06:51Z</time>
      </trkpt>
      <trkpt lat="44.53599" lon="1.65027">
        <ele>212.557</ele>
        <time>2021-02-21T12:07:03Z</time>
      </trkpt>
      <trkpt lat="44.53567" lon="1.64931">
        <ele>205.357</ele>
        <time>2021-02-21T12:07:22Z</time>
      </trkpt>
      <trkpt lat="44.53553" lon="1.64899">
        <ele>202.614</ele>
        <time>2021-02-21T12:07:30Z</time>
      </trkpt>
      <trkpt lat="44.53496" lon="1.6489">
        <ele>201.714</ele>
        <time>2021-02-21T12:07:45Z</time>
      </trkpt>
      <trkpt lat="44.5345" lon="1.64879">
        <ele>200.116</ele>
        <time>2021-02-21T12:07:56Z</time>
      </trkpt>
      <trkpt lat="44.53384" lon="1.64861">
        <ele>200.821</ele>
        <time>2021-02-21T12:08:09Z</time>
      </trkpt>
      <trkpt lat="44.53384" lon="1.64818">
        <ele>200</ele>
        <time>2021-02-21T12:08:15Z</time>
      </trkpt>
      <trkpt lat="44.53364" lon="1.64775">
        <ele>198.862</ele>
        <time>2021-02-21T12:08:22Z</time>
      </trkpt>
      <trkpt lat="44.53313" lon="1.64775">
        <ele>198.454</ele>
        <time>2021-02-21T12:08:32Z</time>
      </trkpt>
      <trkpt lat="44.53261" lon="1.64785">
        <ele>201.105</ele>
        <time>2021-02-21T12:08:47Z</time>
      </trkpt>
      <trkpt lat="44.53253" lon="1.64836">
        <ele>199.68</ele>
        <time>2021-02-21T12:08:59Z</time>
      </trkpt>
      <trkpt lat="44.53191" lon="1.6487">
        <ele>200.1</ele>
        <time>2021-02-21T12:09:12Z</time>
      </trkpt>
      <trkpt lat="44.53138" lon="1.64857">
        <ele>199.079</ele>
        <time>2021-02-21T12:09:24Z</time>
      </trkpt>
      <trkpt lat="44.53094" lon="1.64835">
        <ele>198.528</ele>
        <time>2021-02-21T12:09:34Z</time>
      </trkpt>
      <trkpt lat="44.53052" lon="1.64769">
        <ele>197.806</ele>
        <time>2021-02-21T12:09:47Z</time>
      </trkpt>
      <trkpt lat="44.53031" lon="1.64715">
        <ele>195.768</ele>
        <time>2021-02-21T12:09:57Z</time>
      </trkpt>
      <trkpt lat="44.52993" lon="1.64648">
        <ele>192.238</ele>
        <time>2021-02-21T12:10:13Z</time>
      </trkpt>
      <trkpt lat="44.53045" lon="1.64635">
        <ele>191.333</ele>
        <time>2021-02-21T12:10:36Z</time>
      </trkpt>
      <trkpt lat="44.53065" lon="1.64615">
        <ele>189.472</ele>
        <time>2021-02-21T12:10:45Z</time>
      </trkpt>
      <trkpt lat="44.53078" lon="1.64577">
        <ele>184.82</ele>
        <time>2021-02-21T12:10:56Z</time>
      </trkpt>
      <trkpt lat="44.53066" lon="1.64555">
        <ele>185.08</ele>
        <time>2021-02-21T12:11:03Z</time>
      </trkpt>
      <trkpt lat="44.53035" lon="1.64537">
        <ele>184.131</ele>
        <time>2021-02-21T12:11:13Z</time>
      </trkpt>
      <trkpt lat="44.53014" lon="1.64526">
        <ele>182.785</ele>
        <time>2021-02-21T12:11:20Z</time>
      </trkpt>
      <trkpt lat="44.52984" lon="1.64476">
        <ele>181.699</ele>
        <time>2021-02-21T12:11:34Z</time>
      </trkpt>
      <trkpt lat="44.5299" lon="1.64435">
        <ele>184.557</ele>
        <time>2021-02-21T12:12:02Z</time>
      </trkpt>
      <trkpt lat="44.52989" lon="1.64382">
        <ele>194.516</ele>
        <time>2021-02-21T12:12:28Z</time>
      </trkpt>
      <trkpt lat="44.52993" lon="1.64338">
        <ele>198.7</ele>
        <time>2021-02-21T12:12:49Z</time>
      </trkpt>
      <trkpt lat="44.52993" lon="1.64305">
        <ele>201.169</ele>
        <time>2021-02-21T12:13:05Z</time>
      </trkpt>
      <trkpt lat="44.53023" lon="1.64212">
        <ele>206.215</ele>
        <time>2021-02-21T12:13:39Z</time>
      </trkpt>
      <trkpt lat="44.53029" lon="1.64172">
        <ele>208.329</ele>
        <time>2021-02-21T12:13:59Z</time>
      </trkpt>
      <trkpt lat="44.53042" lon="1.64136">
        <ele>212.702</ele>
        <time>2021-02-21T12:14:17Z</time>
      </trkpt>
      <trkpt lat="44.53062" lon="1.6401">
        <ele>221.366</ele>
        <time>2021-02-21T12:15:11Z</time>
      </trkpt>
      <trkpt lat="44.53071" lon="1.63964">
        <ele>224.328</ele>
        <time>2021-02-21T12:15:29Z</time>
      </trkpt>
      <trkpt lat="44.5308" lon="1.63927">
        <ele>228.525</ele>
        <time>2021-02-21T12:15:45Z</time>
      </trkpt>
      <trkpt lat="44.53087" lon="1.63889">
        <ele>232.531</ele>
        <time>2021-02-21T12:16:01Z</time>
      </trkpt>
      <trkpt lat="44.53108" lon="1.63842">
        <ele>236.133</ele>
        <time>2021-02-21T12:16:22Z</time>
      </trkpt>
      <trkpt lat="44.53122" lon="1.6382">
        <ele>236.527</ele>
        <time>2021-02-21T12:16:34Z</time>
      </trkpt>
      <trkpt lat="44.5316" lon="1.6377">
        <ele>241.978</ele>
        <time>2021-02-21T12:17:06Z</time>
      </trkpt>
      <trkpt lat="44.53179" lon="1.63791">
        <ele>244.835</ele>
        <time>2021-02-21T12:17:24Z</time>
      </trkpt>
      <trkpt lat="44.53186" lon="1.63824">
        <ele>246.98</ele>
        <time>2021-02-21T12:17:40Z</time>
      </trkpt>
      <trkpt lat="44.53226" lon="1.63911">
        <ele>258.525</ele>
        <time>2021-02-21T12:18:34Z</time>
      </trkpt>
      <trkpt lat="44.53242" lon="1.63937">
        <ele>262.642</ele>
        <time>2021-02-21T12:18:52Z</time>
      </trkpt>
      <trkpt lat="44.53245" lon="1.63948">
        <ele>263.798</ele>
        <time>2021-02-21T12:18:59Z</time>
      </trkpt>
      <trkpt lat="44.53259" lon="1.63971">
        <ele>267.284</ele>
        <time>2021-02-21T12:19:17Z</time>
      </trkpt>
      <trkpt lat="44.53265" lon="1.63982">
        <ele>268.814</ele>
        <time>2021-02-21T12:19:26Z</time>
      </trkpt>
      <trkpt lat="44.53276" lon="1.64002">
        <ele>271.778</ele>
        <time>2021-02-21T12:19:40Z</time>
      </trkpt>
      <trkpt lat="44.53309" lon="1.64065">
        <ele>280.269</ele>
        <time>2021-02-21T12:20:19Z</time>
      </trkpt>
      <trkpt lat="44.53329" lon="1.6411">
        <ele>284.038</ele>
        <time>2021-02-21T12:20:42Z</time>
      </trkpt>
      <trkpt lat="44.53344" lon="1.64142">
        <ele>286.865</ele>
        <time>2021-02-21T12:21:01Z</time>
      </trkpt>
      <trkpt lat="44.53361" lon="1.64179">
        <ele>289.325</ele>
        <time>2021-02-21T12:21:19Z</time>
      </trkpt>
      <trkpt lat="44.53388" lon="1.64197">
        <ele>293.042</ele>
        <time>2021-02-21T12:21:39Z</time>
      </trkpt>
      <trkpt lat="44.53434" lon="1.64184">
        <ele>299.766</ele>
        <time>2021-02-21T12:22:09Z</time>
      </trkpt>
      <trkpt lat="44.53459" lon="1.64152">
        <ele>302.555</ele>
        <time>2021-02-21T12:22:33Z</time>
      </trkpt>
      <trkpt lat="44.53476" lon="1.64114">
        <ele>303.856</ele>
        <time>2021-02-21T12:22:55Z</time>
      </trkpt>
      <trkpt lat="44.53495" lon="1.64085">
        <ele>305.633</ele>
        <time>2021-02-21T12:23:06Z</time>
      </trkpt>
      <trkpt lat="44.53498" lon="1.64004">
        <ele>302.196</ele>
        <time>2021-02-21T12:23:21Z</time>
      </trkpt>
      <trkpt lat="44.53505" lon="1.63913">
        <ele>296.472</ele>
        <time>2021-02-21T12:23:32Z</time>
      </trkpt>
      <trkpt lat="44.53534" lon="1.63841">
        <ele>293.65</ele>
        <time>2021-02-21T12:23:40Z</time>
      </trkpt>
      <trkpt lat="44.53564" lon="1.6375">
        <ele>290.536</ele>
        <time>2021-02-21T12:23:49Z</time>
      </trkpt>
      <trkpt lat="44.53577" lon="1.63645">
        <ele>290.778</ele>
        <time>2021-02-21T12:24:06Z</time>
      </trkpt>
      <trkpt lat="44.53577" lon="1.63603">
        <ele>290.239</ele>
        <time>2021-02-21T12:24:28Z</time>
      </trkpt>
      <trkpt lat="44.53575" lon="1.63623">
        <ele>290.761</ele>
        <time>2021-02-21T12:24:39Z</time>
      </trkpt>
      <trkpt lat="44.53574" lon="1.63667">
        <ele>290.248</ele>
        <time>2021-02-21T12:24:53Z</time>
      </trkpt>
      <trkpt lat="44.53571" lon="1.63671">
        <ele>289.784</ele>
        <time>2021-02-21T12:25:02Z</time>
      </trkpt>
      <trkpt lat="44.53571" lon="1.63693">
        <ele>289.918</ele>
        <time>2021-02-21T12:25:22Z</time>
      </trkpt>
      <trkpt lat="44.53577" lon="1.63653">
        <ele>290.708</ele>
        <time>2021-02-21T12:25:41Z</time>
      </trkpt>
      <trkpt lat="44.53574" lon="1.63564">
        <ele>288.506</ele>
        <time>2021-02-21T12:25:59Z</time>
      </trkpt>
      <trkpt lat="44.53588" lon="1.63528">
        <ele>286.1</ele>
        <time>2021-02-21T12:26:05Z</time>
      </trkpt>
      <trkpt lat="44.53618" lon="1.63517">
        <ele>284.726</ele>
        <time>2021-02-21T12:26:11Z</time>
      </trkpt>
      <trkpt lat="44.53659" lon="1.63535">
        <ele>282.524</ele>
        <time>2021-02-21T12:26:20Z</time>
      </trkpt>
      <trkpt lat="44.53683" lon="1.63576">
        <ele>282.704</ele>
        <time>2021-02-21T12:26:27Z</time>
      </trkpt>
      <trkpt lat="44.53715" lon="1.63638">
        <ele>286.739</ele>
        <time>2021-02-21T12:26:38Z</time>
      </trkpt>
      <trkpt lat="44.53766" lon="1.63677">
        <ele>284.866</ele>
        <time>2021-02-21T12:26:50Z</time>
      </trkpt>
      <trkpt lat="44.53846" lon="1.63733">
        <ele>281.552</ele>
        <time>2021-02-21T12:27:08Z</time>
      </trkpt>
      <trkpt lat="44.53882" lon="1.63765">
        <ele>282.31</ele>
        <time>2021-02-21T12:27:19Z</time>
      </trkpt>
      <trkpt lat="44.53962" lon="1.63779">
        <ele>282.783</ele>
        <time>2021-02-21T12:27:41Z</time>
      </trkpt>
      <trkpt lat="44.53981" lon="1.63725">
        <ele>279.42</ele>
        <time>2021-02-21T12:27:49Z</time>
      </trkpt>
      <trkpt lat="44.53935" lon="1.63644">
        <ele>276.761</ele>
        <time>2021-02-21T12:28:12Z</time>
      </trkpt>
      <trkpt lat="44.5391" lon="1.63595">
        <ele>277.923</ele>
        <time>2021-02-21T12:28:28Z</time>
      </trkpt>
      <trkpt lat="44.53883" lon="1.63545">
        <ele>282.376</ele>
        <time>2021-02-21T12:28:48Z</time>
      </trkpt>
      <trkpt lat="44.53869" lon="1.63506">
        <ele>276.775</ele>
        <time>2021-02-21T12:28:59Z</time>
      </trkpt>
      <trkpt lat="44.53906" lon="1.63421">
        <ele>279.644</ele>
        <time>2021-02-21T12:29:15Z</time>
      </trkpt>
      <trkpt lat="44.53996" lon="1.63401">
        <ele>286.621</ele>
        <time>2021-02-21T12:29:44Z</time>
      </trkpt>
      <trkpt lat="44.54087" lon="1.63339">
        <ele>295.33</ele>
        <time>2021-02-21T12:30:37Z</time>
      </trkpt>
      <trkpt lat="44.54108" lon="1.63327">
        <ele>297.394</ele>
        <time>2021-02-21T12:30:49Z</time>
      </trkpt>
      <trkpt lat="44.5413" lon="1.63312">
        <ele>299.606</ele>
        <time>2021-02-21T12:31:04Z</time>
      </trkpt>
      <trkpt lat="44.54169" lon="1.6327">
        <ele>303.781</ele>
        <time>2021-02-21T12:31:26Z</time>
      </trkpt>
      <trkpt lat="44.54164" lon="1.632">
        <ele>304.687</ele>
        <time>2021-02-21T12:31:44Z</time>
      </trkpt>
      <trkpt lat="44.54132" lon="1.63114">
        <ele>304.302</ele>
        <time>2021-02-21T12:32:09Z</time>
      </trkpt>
      <trkpt lat="44.54102" lon="1.63015">
        <ele>303.587</ele>
        <time>2021-02-21T12:32:34Z</time>
      </trkpt>
      <trkpt lat="44.54104" lon="1.62985">
        <ele>305.034</ele>
        <time>2021-02-21T12:32:45Z</time>
      </trkpt>
      <trkpt lat="44.54125" lon="1.62994">
        <ele>306.403</ele>
        <time>2021-02-21T12:33:17Z</time>
      </trkpt>
      <trkpt lat="44.5417" lon="1.62933">
        <ele>304.237</ele>
        <time>2021-02-21T12:33:41Z</time>
      </trkpt>
      <trkpt lat="44.54199" lon="1.62863">
        <ele>298.251</ele>
        <time>2021-02-21T12:33:51Z</time>
      </trkpt>
      <trkpt lat="44.54232" lon="1.62829">
        <ele>296.782</ele>
        <time>2021-02-21T12:33:59Z</time>
      </trkpt>
      <trkpt lat="44.54276" lon="1.62784">
        <ele>295.289</ele>
        <time>2021-02-21T12:34:14Z</time>
      </trkpt>
      <trkpt lat="44.54275" lon="1.62714">
        <ele>292.745</ele>
        <time>2021-02-21T12:34:25Z</time>
      </trkpt>
      <trkpt lat="44.54264" lon="1.62652">
        <ele>289.228</ele>
        <time>2021-02-21T12:34:37Z</time>
      </trkpt>
      <trkpt lat="44.54304" lon="1.62473">
        <ele>283.165</ele>
        <time>2021-02-21T12:35:08Z</time>
      </trkpt>
      <trkpt lat="44.54303" lon="1.62392">
        <ele>283.46</ele>
        <time>2021-02-21T12:35:22Z</time>
      </trkpt>
      <trkpt lat="44.54335" lon="1.62282">
        <ele>281.5</ele>
        <time>2021-02-21T12:35:48Z</time>
      </trkpt>
      <trkpt lat="44.54343" lon="1.62186">
        <ele>280.478</ele>
        <time>2021-02-21T12:35:59Z</time>
      </trkpt>
      <trkpt lat="44.54347" lon="1.62086">
        <ele>280.443</ele>
        <time>2021-02-21T12:36:10Z</time>
      </trkpt>
      <trkpt lat="44.54348" lon="1.61995">
        <ele>277.995</ele>
        <time>2021-02-21T12:36:24Z</time>
      </trkpt>
      <trkpt lat="44.54372" lon="1.61948">
        <ele>271.559</ele>
        <time>2021-02-21T12:36:31Z</time>
      </trkpt>
      <trkpt lat="44.54405" lon="1.61931">
        <ele>264.657</ele>
        <time>2021-02-21T12:36:39Z</time>
      </trkpt>
      <trkpt lat="44.54421" lon="1.61954">
        <ele>262.621</ele>
        <time>2021-02-21T12:36:44Z</time>
      </trkpt>
      <trkpt lat="44.54424" lon="1.62026">
        <ele>262.964</ele>
        <time>2021-02-21T12:36:52Z</time>
      </trkpt>
      <trkpt lat="44.54453" lon="1.62078">
        <ele>258.508</ele>
        <time>2021-02-21T12:37:00Z</time>
      </trkpt>
      <trkpt lat="44.54473" lon="1.6209">
        <ele>259.158</ele>
        <time>2021-02-21T12:37:10Z</time>
      </trkpt>
      <trkpt lat="44.54481" lon="1.62108">
        <ele>260.675</ele>
        <time>2021-02-21T12:37:20Z</time>
      </trkpt>
      <trkpt lat="44.5449" lon="1.62139">
        <ele>263.247</ele>
        <time>2021-02-21T12:37:34Z</time>
      </trkpt>
      <trkpt lat="44.54493" lon="1.62154">
        <ele>264.331</ele>
        <time>2021-02-21T12:37:46Z</time>
      </trkpt>
      <trkpt lat="44.54512" lon="1.62208">
        <ele>272.027</ele>
        <time>2021-02-21T12:38:16Z</time>
      </trkpt>
      <trkpt lat="44.54518" lon="1.62228">
        <ele>274.526</ele>
        <time>2021-02-21T12:38:34Z</time>
      </trkpt>
      <trkpt lat="44.54529" lon="1.62244">
        <ele>276.147</ele>
        <time>2021-02-21T12:38:51Z</time>
      </trkpt>
      <trkpt lat="44.54541" lon="1.6226">
        <ele>277.645</ele>
        <time>2021-02-21T12:39:16Z</time>
      </trkpt>
      <trkpt lat="44.54552" lon="1.62262">
        <ele>278.708</ele>
        <time>2021-02-21T12:39:35Z</time>
      </trkpt>
      <trkpt lat="44.54581" lon="1.62277">
        <ele>281.987</ele>
        <time>2021-02-21T12:40:24Z</time>
      </trkpt>
      <trkpt lat="44.54621" lon="1.62294">
        <ele>283.725</ele>
        <time>2021-02-21T12:40:50Z</time>
      </trkpt>
      <trkpt lat="44.54641" lon="1.62305">
        <ele>284.055</ele>
        <time>2021-02-21T12:42:09Z</time>
      </trkpt>
      <trkpt lat="44.54685" lon="1.62365">
        <ele>287.25</ele>
        <time>2021-02-21T12:42:25Z</time>
      </trkpt>
      <trkpt lat="44.54729" lon="1.62433">
        <ele>291.917</ele>
        <time>2021-02-21T12:42:46Z</time>
      </trkpt>
      <trkpt lat="44.54729" lon="1.62463">
        <ele>293.369</ele>
        <time>2021-02-21T12:43:01Z</time>
      </trkpt>
      <trkpt lat="44.54723" lon="1.62472">
        <ele>293.978</ele>
        <time>2021-02-21T12:43:09Z</time>
      </trkpt>
      <trkpt lat="44.54713" lon="1.62494">
        <ele>295.358</ele>
        <time>2021-02-21T12:43:22Z</time>
      </trkpt>
      <trkpt lat="44.54709" lon="1.62528">
        <ele>297.37</ele>
        <time>2021-02-21T12:43:38Z</time>
      </trkpt>
      <trkpt lat="44.54748" lon="1.62576">
        <ele>297.83</ele>
        <time>2021-02-21T12:43:58Z</time>
      </trkpt>
      <trkpt lat="44.54788" lon="1.627">
        <ele>299.001</ele>
        <time>2021-02-21T12:44:29Z</time>
      </trkpt>
      <trkpt lat="44.54801" lon="1.62766">
        <ele>299.795</ele>
        <time>2021-02-21T12:44:49Z</time>
      </trkpt>
      <trkpt lat="44.54834" lon="1.62856">
        <ele>300.261</ele>
        <time>2021-02-21T12:45:09Z</time>
      </trkpt>
      <trkpt lat="44.549" lon="1.62979">
        <ele>296.103</ele>
        <time>2021-02-21T12:45:41Z</time>
      </trkpt>
      <trkpt lat="44.54914" lon="1.63065">
        <ele>291.652</ele>
        <time>2021-02-21T12:45:53Z</time>
      </trkpt>
      <trkpt lat="44.54941" lon="1.63132">
        <ele>288.745</ele>
        <time>2021-02-21T12:46:01Z</time>
      </trkpt>
      <trkpt lat="44.54979" lon="1.63197">
        <ele>287.647</ele>
        <time>2021-02-21T12:46:09Z</time>
      </trkpt>
      <trkpt lat="44.55028" lon="1.63246">
        <ele>286.688</ele>
        <time>2021-02-21T12:46:19Z</time>
      </trkpt>
      <trkpt lat="44.55045" lon="1.6332">
        <ele>290.24</ele>
        <time>2021-02-21T12:46:39Z</time>
      </trkpt>
      <trkpt lat="44.55081" lon="1.63387">
        <ele>292.354</ele>
        <time>2021-02-21T12:46:51Z</time>
      </trkpt>
      <trkpt lat="44.55113" lon="1.63453">
        <ele>293.462</ele>
        <time>2021-02-21T12:47:02Z</time>
      </trkpt>
      <trkpt lat="44.55152" lon="1.63541">
        <ele>294.526</ele>
        <time>2021-02-21T12:47:22Z</time>
      </trkpt>
      <trkpt lat="44.55179" lon="1.63584">
        <ele>294.005</ele>
        <time>2021-02-21T12:47:42Z</time>
      </trkpt>
      <trkpt lat="44.55176" lon="1.6362">
        <ele>294.405</ele>
        <time>2021-02-21T12:47:56Z</time>
      </trkpt>
      <trkpt lat="44.55156" lon="1.63677">
        <ele>295.411</ele>
        <time>2021-02-21T12:48:15Z</time>
      </trkpt>
      <trkpt lat="44.55142" lon="1.63726">
        <ele>295.982</ele>
        <time>2021-02-21T12:48:29Z</time>
      </trkpt>
      <trkpt lat="44.55123" lon="1.63784">
        <ele>296.413</ele>
        <time>2021-02-21T12:48:47Z</time>
      </trkpt>
      <trkpt lat="44.5511" lon="1.63827">
        <ele>297.121</ele>
        <time>2021-02-21T12:49:03Z</time>
      </trkpt>
      <trkpt lat="44.55118" lon="1.63968">
        <ele>296.635</ele>
        <time>2021-02-21T12:49:33Z</time>
      </trkpt>
      <trkpt lat="44.55142" lon="1.64109">
        <ele>294.935</ele>
        <time>2021-02-21T12:49:55Z</time>
      </trkpt>
      <trkpt lat="44.55166" lon="1.64195">
        <ele>293.556</ele>
        <time>2021-02-21T12:50:09Z</time>
      </trkpt>
      <trkpt lat="44.55193" lon="1.64232">
        <ele>292.753</ele>
        <time>2021-02-21T12:50:17Z</time>
      </trkpt>
      <trkpt lat="44.5523" lon="1.643">
        <ele>288.986</ele>
        <time>2021-02-21T12:50:27Z</time>
      </trkpt>
      <trkpt lat="44.55242" lon="1.64337">
        <ele>287.243</ele>
        <time>2021-02-21T12:50:33Z</time>
      </trkpt>
      <trkpt lat="44.5526" lon="1.64413">
        <ele>285.495</ele>
        <time>2021-02-21T12:50:50Z</time>
      </trkpt>
      <trkpt lat="44.55247" lon="1.645">
        <ele>283.932</ele>
        <time>2021-02-21T12:51:04Z</time>
      </trkpt>
      <trkpt lat="44.55238" lon="1.64549">
        <ele>282.87</ele>
        <time>2021-02-21T12:51:12Z</time>
      </trkpt>
      <trkpt lat="44.55251" lon="1.64638">
        <ele>281.474</ele>
        <time>2021-02-21T12:51:30Z</time>
      </trkpt>
      <trkpt lat="44.55262" lon="1.64734">
        <ele>281.121</ele>
        <time>2021-02-21T12:51:53Z</time>
      </trkpt>
      <trkpt lat="44.55317" lon="1.64773">
        <ele>282.041</ele>
        <time>2021-02-21T12:52:20Z</time>
      </trkpt>
      <trkpt lat="44.55299" lon="1.64766">
        <ele>282.536</ele>
        <time>2021-02-21T12:56:44Z</time>
      </trkpt>
      <trkpt lat="44.5525" lon="1.64716">
        <ele>280.742</ele>
        <time>2021-02-21T12:57:03Z</time>
      </trkpt>
      <trkpt lat="44.55249" lon="1.64625">
        <ele>281.454</ele>
        <time>2021-02-21T12:57:25Z</time>
      </trkpt>
      <trkpt lat="44.55269" lon="1.64593">
        <ele>282.706</ele>
        <time>2021-02-21T12:57:42Z</time>
      </trkpt>
      <trkpt lat="44.55361" lon="1.64608">
        <ele>277.904</ele>
        <time>2021-02-21T12:58:07Z</time>
      </trkpt>
      <trkpt lat="44.55403" lon="1.64513">
        <ele>276.612</ele>
        <time>2021-02-21T12:58:25Z</time>
      </trkpt>
      <trkpt lat="44.55451" lon="1.64381">
        <ele>277.837</ele>
        <time>2021-02-21T12:58:49Z</time>
      </trkpt>
      <trkpt lat="44.55464" lon="1.64306">
        <ele>278.043</ele>
        <time>2021-02-21T12:59:00Z</time>
      </trkpt>
      <trkpt lat="44.55511" lon="1.64287">
        <ele>279.45</ele>
        <time>2021-02-21T12:59:19Z</time>
      </trkpt>
      <trkpt lat="44.55541" lon="1.64279">
        <ele>281.46</ele>
        <time>2021-02-21T12:59:33Z</time>
      </trkpt>
      <trkpt lat="44.55573" lon="1.6428">
        <ele>284.09</ele>
        <time>2021-02-21T12:59:52Z</time>
      </trkpt>
      <trkpt lat="44.5562" lon="1.64255">
        <ele>288.26</ele>
        <time>2021-02-21T13:00:17Z</time>
      </trkpt>
      <trkpt lat="44.55677" lon="1.64223">
        <ele>292.505</ele>
        <time>2021-02-21T13:00:43Z</time>
      </trkpt>
      <trkpt lat="44.55714" lon="1.64207">
        <ele>295.112</ele>
        <time>2021-02-21T13:01:01Z</time>
      </trkpt>
      <trkpt lat="44.55744" lon="1.64185">
        <ele>297.044</ele>
        <time>2021-02-21T13:01:15Z</time>
      </trkpt>
      <trkpt lat="44.55792" lon="1.64122">
        <ele>297.46</ele>
        <time>2021-02-21T13:01:40Z</time>
      </trkpt>
      <trkpt lat="44.55803" lon="1.64059">
        <ele>295.052</ele>
        <time>2021-02-21T13:02:22Z</time>
      </trkpt>
      <trkpt lat="44.55793" lon="1.64034">
        <ele>294.027</ele>
        <time>2021-02-21T13:02:35Z</time>
      </trkpt>
      <trkpt lat="44.55794" lon="1.64034">
        <ele>294.006</ele>
        <time>2021-02-21T13:02:59Z</time>
      </trkpt>
      <trkpt lat="44.55833" lon="1.6396">
        <ele>292.062</ele>
        <time>2021-02-21T13:03:24Z</time>
      </trkpt>
      <trkpt lat="44.55875" lon="1.63915">
        <ele>290.883</ele>
        <time>2021-02-21T13:03:33Z</time>
      </trkpt>
      <trkpt lat="44.55905" lon="1.6392">
        <ele>288.675</ele>
        <time>2021-02-21T13:03:43Z</time>
      </trkpt>
      <trkpt lat="44.55944" lon="1.63909">
        <ele>290.421</ele>
        <time>2021-02-21T13:03:53Z</time>
      </trkpt>
      <trkpt lat="44.55994" lon="1.63955">
        <ele>285.542</ele>
        <time>2021-02-21T13:04:16Z</time>
      </trkpt>
      <trkpt lat="44.56062" lon="1.63952">
        <ele>283.115</ele>
        <time>2021-02-21T13:04:28Z</time>
      </trkpt>
      <trkpt lat="44.56083" lon="1.63961">
        <ele>283.863</ele>
        <time>2021-02-21T13:04:41Z</time>
      </trkpt>
      <trkpt lat="44.56102" lon="1.63962">
        <ele>287.551</ele>
        <time>2021-02-21T13:05:03Z</time>
      </trkpt>
      <trkpt lat="44.56112" lon="1.63951">
        <ele>289.648</ele>
        <time>2021-02-21T13:05:19Z</time>
      </trkpt>
      <trkpt lat="44.56131" lon="1.63975">
        <ele>294.335</ele>
        <time>2021-02-21T13:05:50Z</time>
      </trkpt>
      <trkpt lat="44.56144" lon="1.63977">
        <ele>296.06</ele>
        <time>2021-02-21T13:06:03Z</time>
      </trkpt>
      <trkpt lat="44.56158" lon="1.63987">
        <ele>297.182</ele>
        <time>2021-02-21T13:06:18Z</time>
      </trkpt>
      <trkpt lat="44.56169" lon="1.63981">
        <ele>298.868</ele>
        <time>2021-02-21T13:06:28Z</time>
      </trkpt>
      <trkpt lat="44.56182" lon="1.63958">
        <ele>301.01</ele>
        <time>2021-02-21T13:06:44Z</time>
      </trkpt>
      <trkpt lat="44.56228" lon="1.63944">
        <ele>302.254</ele>
        <time>2021-02-21T13:07:12Z</time>
      </trkpt>
      <trkpt lat="44.56235" lon="1.63945">
        <ele>302.132</ele>
        <time>2021-02-21T13:08:27Z</time>
      </trkpt>
      <trkpt lat="44.56246" lon="1.6392">
        <ele>302.565</ele>
        <time>2021-02-21T13:08:41Z</time>
      </trkpt>
      <trkpt lat="44.56259" lon="1.63893">
        <ele>302.764</ele>
        <time>2021-02-21T13:08:49Z</time>
      </trkpt>
      <trkpt lat="44.5625" lon="1.63836">
        <ele>301.594</ele>
        <time>2021-02-21T13:09:01Z</time>
      </trkpt>
      <trkpt lat="44.56213" lon="1.63736">
        <ele>301.554</ele>
        <time>2021-02-21T13:09:19Z</time>
      </trkpt>
      <trkpt lat="44.56178" lon="1.63751">
        <ele>301.693</ele>
        <time>2021-02-21T13:09:32Z</time>
      </trkpt>
      <trkpt lat="44.56126" lon="1.63666">
        <ele>301.562</ele>
        <time>2021-02-21T13:09:57Z</time>
      </trkpt>
      <trkpt lat="44.56081" lon="1.63584">
        <ele>303.203</ele>
        <time>2021-02-21T13:10:12Z</time>
      </trkpt>
      <trkpt lat="44.56023" lon="1.63567">
        <ele>303.221</ele>
        <time>2021-02-21T13:10:32Z</time>
      </trkpt>
      <trkpt lat="44.55961" lon="1.63723">
        <ele>300.932</ele>
        <time>2021-02-21T13:11:05Z</time>
      </trkpt>
      <trkpt lat="44.55913" lon="1.63733">
        <ele>300.398</ele>
        <time>2021-02-21T13:11:16Z</time>
      </trkpt>
      <trkpt lat="44.55879" lon="1.63736">
        <ele>298.692</ele>
        <time>2021-02-21T13:11:24Z</time>
      </trkpt>
      <trkpt lat="44.55837" lon="1.63734">
        <ele>296.814</ele>
        <time>2021-02-21T13:11:33Z</time>
      </trkpt>
      <trkpt lat="44.55797" lon="1.63704">
        <ele>294.501</ele>
        <time>2021-02-21T13:11:41Z</time>
      </trkpt>
      <trkpt lat="44.55756" lon="1.63667">
        <ele>291.234</ele>
        <time>2021-02-21T13:11:49Z</time>
      </trkpt>
      <trkpt lat="44.55716" lon="1.63678">
        <ele>289.443</ele>
        <time>2021-02-21T13:11:56Z</time>
      </trkpt>
      <trkpt lat="44.55675" lon="1.63694">
        <ele>289.255</ele>
        <time>2021-02-21T13:12:03Z</time>
      </trkpt>
      <trkpt lat="44.55614" lon="1.63671">
        <ele>289.383</ele>
        <time>2021-02-21T13:12:21Z</time>
      </trkpt>
      <trkpt lat="44.55615" lon="1.6359">
        <ele>288.752</ele>
        <time>2021-02-21T13:12:32Z</time>
      </trkpt>
      <trkpt lat="44.55636" lon="1.63556">
        <ele>290.525</ele>
        <time>2021-02-21T13:12:41Z</time>
      </trkpt>
      <trkpt lat="44.55669" lon="1.63544">
        <ele>291.255</ele>
        <time>2021-02-21T13:13:00Z</time>
      </trkpt>
      <trkpt lat="44.55685" lon="1.63521">
        <ele>292.918</ele>
        <time>2021-02-21T13:13:11Z</time>
      </trkpt>
      <trkpt lat="44.55697" lon="1.63502">
        <ele>294.475</ele>
        <time>2021-02-21T13:13:19Z</time>
      </trkpt>
      <trkpt lat="44.55697" lon="1.6348">
        <ele>296.51</ele>
        <time>2021-02-21T13:13:27Z</time>
      </trkpt>
      <trkpt lat="44.55703" lon="1.63452">
        <ele>298.439</ele>
        <time>2021-02-21T13:13:38Z</time>
      </trkpt>
      <trkpt lat="44.55704" lon="1.63407">
        <ele>300.929</ele>
        <time>2021-02-21T13:13:56Z</time>
      </trkpt>
      <trkpt lat="44.55617" lon="1.63362">
        <ele>298.79</ele>
        <time>2021-02-21T13:14:20Z</time>
      </trkpt>
      <trkpt lat="44.55541" lon="1.63266">
        <ele>299.681</ele>
        <time>2021-02-21T13:14:48Z</time>
      </trkpt>
      <trkpt lat="44.55523" lon="1.63214">
        <ele>301.221</ele>
        <time>2021-02-21T13:15:05Z</time>
      </trkpt>
      <trkpt lat="44.55481" lon="1.63144">
        <ele>301.625</ele>
        <time>2021-02-21T13:15:25Z</time>
      </trkpt>
      <trkpt lat="44.55468" lon="1.63074">
        <ele>300.91</ele>
        <time>2021-02-21T13:15:35Z</time>
      </trkpt>
      <trkpt lat="44.55457" lon="1.63008">
        <ele>299.247</ele>
        <time>2021-02-21T13:15:42Z</time>
      </trkpt>
      <trkpt lat="44.55438" lon="1.62928">
        <ele>298.042</ele>
        <time>2021-02-21T13:15:52Z</time>
      </trkpt>
      <trkpt lat="44.55439" lon="1.62831">
        <ele>296.038</ele>
        <time>2021-02-21T13:16:10Z</time>
      </trkpt>
      <trkpt lat="44.55442" lon="1.62777">
        <ele>292.512</ele>
        <time>2021-02-21T13:16:17Z</time>
      </trkpt>
      <trkpt lat="44.55422" lon="1.62696">
        <ele>287.521</ele>
        <time>2021-02-21T13:16:28Z</time>
      </trkpt>
      <trkpt lat="44.55385" lon="1.62617">
        <ele>282.945</ele>
        <time>2021-02-21T13:16:37Z</time>
      </trkpt>
      <trkpt lat="44.55374" lon="1.62596">
        <ele>283.065</ele>
        <time>2021-02-21T13:19:30Z</time>
      </trkpt>
      <trkpt lat="44.55359" lon="1.6252">
        <ele>283.769</ele>
        <time>2021-02-21T13:19:44Z</time>
      </trkpt>
      <trkpt lat="44.55347" lon="1.62426">
        <ele>282.007</ele>
        <time>2021-02-21T13:19:59Z</time>
      </trkpt>
      <trkpt lat="44.55369" lon="1.62376">
        <ele>275.158</ele>
        <time>2021-02-21T13:20:12Z</time>
      </trkpt>
      <trkpt lat="44.55464" lon="1.62304">
        <ele>255.978</ele>
        <time>2021-02-21T13:20:27Z</time>
      </trkpt>
      <trkpt lat="44.55486" lon="1.62289">
        <ele>255.258</ele>
        <time>2021-02-21T13:20:33Z</time>
      </trkpt>
      <trkpt lat="44.55498" lon="1.62298">
        <ele>255.559</ele>
        <time>2021-02-21T13:20:39Z</time>
      </trkpt>
      <trkpt lat="44.5544" lon="1.62267">
        <ele>254.269</ele>
        <time>2021-02-21T13:21:01Z</time>
      </trkpt>
      <trkpt lat="44.5534" lon="1.62186">
        <ele>251.226</ele>
        <time>2021-02-21T13:21:29Z</time>
      </trkpt>
      <trkpt lat="44.55295" lon="1.62114">
        <ele>245.221</ele>
        <time>2021-02-21T13:21:47Z</time>
      </trkpt>
      <trkpt lat="44.55314" lon="1.62048">
        <ele>244.326</ele>
        <time>2021-02-21T13:21:59Z</time>
      </trkpt>
      <trkpt lat="44.55346" lon="1.62041">
        <ele>248.14</ele>
        <time>2021-02-21T13:22:17Z</time>
      </trkpt>
      <trkpt lat="44.55402" lon="1.62089">
        <ele>249.075</ele>
        <time>2021-02-21T13:22:36Z</time>
      </trkpt>
      <trkpt lat="44.55455" lon="1.6208">
        <ele>251.927</ele>
        <time>2021-02-21T13:22:50Z</time>
      </trkpt>
      <trkpt lat="44.55515" lon="1.62052">
        <ele>254.48</ele>
        <time>2021-02-21T13:23:10Z</time>
      </trkpt>
      <trkpt lat="44.55585" lon="1.62">
        <ele>255.956</ele>
        <time>2021-02-21T13:23:30Z</time>
      </trkpt>
      <trkpt lat="44.55623" lon="1.61936">
        <ele>256.847</ele>
        <time>2021-02-21T13:23:43Z</time>
      </trkpt>
      <trkpt lat="44.5566" lon="1.61843">
        <ele>257.51</ele>
        <time>2021-02-21T13:24:01Z</time>
      </trkpt>
      <trkpt lat="44.55687" lon="1.618">
        <ele>257.177</ele>
        <time>2021-02-21T13:24:09Z</time>
      </trkpt>
      <trkpt lat="44.55701" lon="1.61734">
        <ele>258.245</ele>
        <time>2021-02-21T13:24:26Z</time>
      </trkpt>
      <trkpt lat="44.55725" lon="1.61666">
        <ele>257.894</ele>
        <time>2021-02-21T13:24:38Z</time>
      </trkpt>
      <trkpt lat="44.55754" lon="1.61623">
        <ele>258.109</ele>
        <time>2021-02-21T13:24:48Z</time>
      </trkpt>
      <trkpt lat="44.5582" lon="1.61541">
        <ele>257.162</ele>
        <time>2021-02-21T13:25:07Z</time>
      </trkpt>
      <trkpt lat="44.55864" lon="1.61476">
        <ele>257.774</ele>
        <time>2021-02-21T13:25:28Z</time>
      </trkpt>
      <trkpt lat="44.55919" lon="1.61438">
        <ele>258.951</ele>
        <time>2021-02-21T13:25:46Z</time>
      </trkpt>
      <trkpt lat="44.55979" lon="1.61424">
        <ele>258.307</ele>
        <time>2021-02-21T13:26:04Z</time>
      </trkpt>
      <trkpt lat="44.56029" lon="1.61418">
        <ele>257.027</ele>
        <time>2021-02-21T13:26:22Z</time>
      </trkpt>
      <trkpt lat="44.56054" lon="1.61348">
        <ele>259.54</ele>
        <time>2021-02-21T13:26:41Z</time>
      </trkpt>
      <trkpt lat="44.56075" lon="1.61259">
        <ele>260.829</ele>
        <time>2021-02-21T13:26:59Z</time>
      </trkpt>
      <trkpt lat="44.56098" lon="1.61175">
        <ele>263.118</ele>
        <time>2021-02-21T13:27:14Z</time>
      </trkpt>
      <trkpt lat="44.56171" lon="1.61104">
        <ele>259.576</ele>
        <time>2021-02-21T13:27:40Z</time>
      </trkpt>
      <trkpt lat="44.5618" lon="1.61066">
        <ele>260.467</ele>
        <time>2021-02-21T13:27:52Z</time>
      </trkpt>
      <trkpt lat="44.56188" lon="1.61015">
        <ele>259.065</ele>
        <time>2021-02-21T13:28:02Z</time>
      </trkpt>
      <trkpt lat="44.56232" lon="1.60945">
        <ele>259.201</ele>
        <time>2021-02-21T13:28:18Z</time>
      </trkpt>
      <trkpt lat="44.56265" lon="1.60889">
        <ele>260.726</ele>
        <time>2021-02-21T13:28:36Z</time>
      </trkpt>
      <trkpt lat="44.56291" lon="1.60838">
        <ele>260.287</ele>
        <time>2021-02-21T13:28:50Z</time>
      </trkpt>
      <trkpt lat="44.56315" lon="1.60777">
        <ele>262.421</ele>
        <time>2021-02-21T13:29:09Z</time>
      </trkpt>
      <trkpt lat="44.56326" lon="1.60782">
        <ele>260.81</ele>
        <time>2021-02-21T13:29:21Z</time>
      </trkpt>
      <trkpt lat="44.56319" lon="1.60771">
        <ele>262.379</ele>
        <time>2021-02-21T13:30:35Z</time>
      </trkpt>
      <trkpt lat="44.56328" lon="1.60729">
        <ele>265.266</ele>
        <time>2021-02-21T13:30:51Z</time>
      </trkpt>
      <trkpt lat="44.56315" lon="1.60689">
        <ele>270.899</ele>
        <time>2021-02-21T13:31:10Z</time>
      </trkpt>
      <trkpt lat="44.56352" lon="1.60709">
        <ele>266.637</ele>
        <time>2021-02-21T13:31:26Z</time>
      </trkpt>
      <trkpt lat="44.56436" lon="1.60683">
        <ele>270.252</ele>
        <time>2021-02-21T13:31:52Z</time>
      </trkpt>
      <trkpt lat="44.56504" lon="1.60658">
        <ele>270.714</ele>
        <time>2021-02-21T13:32:11Z</time>
      </trkpt>
      <trkpt lat="44.56538" lon="1.60627">
        <ele>270.527</ele>
        <time>2021-02-21T13:32:29Z</time>
      </trkpt>
      <trkpt lat="44.56535" lon="1.60651">
        <ele>270.756</ele>
        <time>2021-02-21T13:33:07Z</time>
      </trkpt>
      <trkpt lat="44.56556" lon="1.60644">
        <ele>271.379</ele>
        <time>2021-02-21T13:33:13Z</time>
      </trkpt>
      <trkpt lat="44.56567" lon="1.60648">
        <ele>272.132</ele>
        <time>2021-02-21T13:33:19Z</time>
      </trkpt>
      <trkpt lat="44.56589" lon="1.6065">
        <ele>273.865</ele>
        <time>2021-02-21T13:33:31Z</time>
      </trkpt>
      <trkpt lat="44.56604" lon="1.60623">
        <ele>273.801</ele>
        <time>2021-02-21T13:33:40Z</time>
      </trkpt>
      <trkpt lat="44.56671" lon="1.60519">
        <ele>278.758</ele>
        <time>2021-02-21T13:34:13Z</time>
      </trkpt>
      <trkpt lat="44.567" lon="1.60472">
        <ele>278.8</ele>
        <time>2021-02-21T13:34:32Z</time>
      </trkpt>
      <trkpt lat="44.56704" lon="1.60468">
        <ele>278.999</ele>
        <time>2021-02-21T13:34:57Z</time>
      </trkpt>
      <trkpt lat="44.56716" lon="1.60443">
        <ele>278.45</ele>
        <time>2021-02-21T13:35:19Z</time>
      </trkpt>
      <trkpt lat="44.56708" lon="1.60426">
        <ele>277.078</ele>
        <time>2021-02-21T13:35:35Z</time>
      </trkpt>
      <trkpt lat="44.56694" lon="1.60389">
        <ele>275.301</ele>
        <time>2021-02-21T13:35:49Z</time>
      </trkpt>
      <trkpt lat="44.56686" lon="1.60377">
        <ele>275.021</ele>
        <time>2021-02-21T13:35:57Z</time>
      </trkpt>
      <trkpt lat="44.56688" lon="1.60369">
        <ele>275.21</ele>
        <time>2021-02-21T13:36:05Z</time>
      </trkpt>
      <trkpt lat="44.567" lon="1.60341">
        <ele>276.268</ele>
        <time>2021-02-21T13:36:22Z</time>
      </trkpt>
      <trkpt lat="44.56712" lon="1.60309">
        <ele>277.042</ele>
        <time>2021-02-21T13:36:35Z</time>
      </trkpt>
      <trkpt lat="44.56718" lon="1.60288">
        <ele>277.494</ele>
        <time>2021-02-21T13:37:50Z</time>
      </trkpt>
      <trkpt lat="44.56708" lon="1.60277">
        <ele>278.052</ele>
        <time>2021-02-21T13:38:55Z</time>
      </trkpt>
      <trkpt lat="44.56701" lon="1.60262">
        <ele>278.893</ele>
        <time>2021-02-21T13:39:07Z</time>
      </trkpt>
      <trkpt lat="44.56695" lon="1.60278">
        <ele>278.493</ele>
        <time>2021-02-21T13:39:34Z</time>
      </trkpt>
      <trkpt lat="44.56695" lon="1.60298">
        <ele>277.61</ele>
        <time>2021-02-21T13:39:46Z</time>
      </trkpt>
      <trkpt lat="44.56681" lon="1.60313">
        <ele>277.995</ele>
        <time>2021-02-21T13:40:00Z</time>
      </trkpt>
      <trkpt lat="44.56664" lon="1.60322">
        <ele>278.881</ele>
        <time>2021-02-21T13:40:12Z</time>
      </trkpt>
      <trkpt lat="44.56665" lon="1.60323">
        <ele>278.651</ele>
        <time>2021-02-21T13:40:36Z</time>
      </trkpt>
      <trkpt lat="44.56669" lon="1.60302">
        <ele>279.791</ele>
        <time>2021-02-21T13:41:11Z</time>
      </trkpt>
      <trkpt lat="44.56657" lon="1.60279">
        <ele>283.029</ele>
        <time>2021-02-21T13:41:30Z</time>
      </trkpt>
      <trkpt lat="44.56645" lon="1.60271">
        <ele>285.343</ele>
        <time>2021-02-21T13:41:41Z</time>
      </trkpt>
      <trkpt lat="44.56651" lon="1.6026">
        <ele>285.365</ele>
        <time>2021-02-21T13:41:50Z</time>
      </trkpt>
      <trkpt lat="44.56673" lon="1.60219">
        <ele>285.601</ele>
        <time>2021-02-21T13:42:08Z</time>
      </trkpt>
      <trkpt lat="44.56709" lon="1.60158">
        <ele>284.966</ele>
        <time>2021-02-21T13:42:27Z</time>
      </trkpt>
      <trkpt lat="44.5674" lon="1.60074">
        <ele>289.134</ele>
        <time>2021-02-21T13:42:46Z</time>
      </trkpt>
      <trkpt lat="44.56766" lon="1.60022">
        <ele>293.722</ele>
        <time>2021-02-21T13:43:01Z</time>
      </trkpt>
      <trkpt lat="44.56785" lon="1.60002">
        <ele>294.704</ele>
        <time>2021-02-21T13:43:12Z</time>
      </trkpt>
      <trkpt lat="44.568" lon="1.59983">
        <ele>295.513</ele>
        <time>2021-02-21T13:43:27Z</time>
      </trkpt>
      <trkpt lat="44.56809" lon="1.5997">
        <ele>296.269</ele>
        <time>2021-02-21T13:43:44Z</time>
      </trkpt>
      <trkpt lat="44.56834" lon="1.59941">
        <ele>298.215</ele>
        <time>2021-02-21T13:44:05Z</time>
      </trkpt>
      <trkpt lat="44.56838" lon="1.59927">
        <ele>299.443</ele>
        <time>2021-02-21T13:44:19Z</time>
      </trkpt>
      <trkpt lat="44.56846" lon="1.59902">
        <ele>300.23</ele>
        <time>2021-02-21T13:44:40Z</time>
      </trkpt>
      <trkpt lat="44.56842" lon="1.59843">
        <ele>302.088</ele>
        <time>2021-02-21T13:45:10Z</time>
      </trkpt>
      <trkpt lat="44.56835" lon="1.59822">
        <ele>302.37</ele>
        <time>2021-02-21T13:45:20Z</time>
      </trkpt>
      <trkpt lat="44.5685" lon="1.59754">
        <ele>301.76</ele>
        <time>2021-02-21T13:45:33Z</time>
      </trkpt>
      <trkpt lat="44.56852" lon="1.59697">
        <ele>301.725</ele>
        <time>2021-02-21T13:45:45Z</time>
      </trkpt>
      <trkpt lat="44.56834" lon="1.59649">
        <ele>302.046</ele>
        <time>2021-02-21T13:45:59Z</time>
      </trkpt>
      <trkpt lat="44.56798" lon="1.59563">
        <ele>302.55</ele>
        <time>2021-02-21T13:46:23Z</time>
      </trkpt>
      <trkpt lat="44.56788" lon="1.59493">
        <ele>303.985</ele>
        <time>2021-02-21T13:46:37Z</time>
      </trkpt>
      <trkpt lat="44.56804" lon="1.59415">
        <ele>309.462</ele>
        <time>2021-02-21T13:46:58Z</time>
      </trkpt>
      <trkpt lat="44.56817" lon="1.5937">
        <ele>314.412</ele>
        <time>2021-02-21T13:47:13Z</time>
      </trkpt>
      <trkpt lat="44.56832" lon="1.59323">
        <ele>318.957</ele>
        <time>2021-02-21T13:47:29Z</time>
      </trkpt>
      <trkpt lat="44.56853" lon="1.59262">
        <ele>321.374</ele>
        <time>2021-02-21T13:47:51Z</time>
      </trkpt>
      <trkpt lat="44.56863" lon="1.59196">
        <ele>322.698</ele>
        <time>2021-02-21T13:48:10Z</time>
      </trkpt>
      <trkpt lat="44.56863" lon="1.59081">
        <ele>321.485</ele>
        <time>2021-02-21T13:48:31Z</time>
      </trkpt>
      <trkpt lat="44.56869" lon="1.58993">
        <ele>319.042</ele>
        <time>2021-02-21T13:48:38Z</time>
      </trkpt>
      <trkpt lat="44.56859" lon="1.58918">
        <ele>319.13</ele>
        <time>2021-02-21T13:48:44Z</time>
      </trkpt>
      <trkpt lat="44.56863" lon="1.58857">
        <ele>321.355</ele>
        <time>2021-02-21T13:48:57Z</time>
      </trkpt>
      <trkpt lat="44.5688" lon="1.58808">
        <ele>325.181</ele>
        <time>2021-02-21T13:49:15Z</time>
      </trkpt>
      <trkpt lat="44.56895" lon="1.58759">
        <ele>329.691</ele>
        <time>2021-02-21T13:49:33Z</time>
      </trkpt>
      <trkpt lat="44.56897" lon="1.58652">
        <ele>338.268</ele>
        <time>2021-02-21T13:50:15Z</time>
      </trkpt>
      <trkpt lat="44.56895" lon="1.58602">
        <ele>340.41</ele>
        <time>2021-02-21T13:50:32Z</time>
      </trkpt>
      <trkpt lat="44.56911" lon="1.58571">
        <ele>341.23</ele>
        <time>2021-02-21T13:50:48Z</time>
      </trkpt>
      <trkpt lat="44.56937" lon="1.5856">
        <ele>342.365</ele>
        <time>2021-02-21T13:51:05Z</time>
      </trkpt>
      <trkpt lat="44.57021" lon="1.58502">
        <ele>344.23</ele>
        <time>2021-02-21T13:51:45Z</time>
      </trkpt>
      <trkpt lat="44.57098" lon="1.58416">
        <ele>346.765</ele>
        <time>2021-02-21T13:52:16Z</time>
      </trkpt>
      <trkpt lat="44.57103" lon="1.58378">
        <ele>345.204</ele>
        <time>2021-02-21T13:52:29Z</time>
      </trkpt>
      <trkpt lat="44.57049" lon="1.58339">
        <ele>339.05</ele>
        <time>2021-02-21T13:52:37Z</time>
      </trkpt>
      <trkpt lat="44.56997" lon="1.58306">
        <ele>335.313</ele>
        <time>2021-02-21T13:52:44Z</time>
      </trkpt>
      <trkpt lat="44.56973" lon="1.5827">
        <ele>335.042</ele>
        <time>2021-02-21T13:52:53Z</time>
      </trkpt>
      <trkpt lat="44.56919" lon="1.58221">
        <ele>337.315</ele>
        <time>2021-02-21T13:53:41Z</time>
      </trkpt>
      <trkpt lat="44.56876" lon="1.58205">
        <ele>340.465</ele>
        <time>2021-02-21T13:54:00Z</time>
      </trkpt>
      <trkpt lat="44.56849" lon="1.58189">
        <ele>343.271</ele>
        <time>2021-02-21T13:54:20Z</time>
      </trkpt>
      <trkpt lat="44.5684" lon="1.58165">
        <ele>345.052</ele>
        <time>2021-02-21T13:54:34Z</time>
      </trkpt>
      <trkpt lat="44.56833" lon="1.58144">
        <ele>345.185</ele>
        <time>2021-02-21T13:54:47Z</time>
      </trkpt>
      <trkpt lat="44.5683" lon="1.58121">
        <ele>345.298</ele>
        <time>2021-02-21T13:55:00Z</time>
      </trkpt>
      <trkpt lat="44.56837" lon="1.58094">
        <ele>345.34</ele>
        <time>2021-02-21T13:55:12Z</time>
      </trkpt>
      <trkpt lat="44.56859" lon="1.58079">
        <ele>346.072</ele>
        <time>2021-02-21T13:55:25Z</time>
      </trkpt>
      <trkpt lat="44.56892" lon="1.58046">
        <ele>348.214</ele>
        <time>2021-02-21T13:55:48Z</time>
      </trkpt>
      <trkpt lat="44.56897" lon="1.58038">
        <ele>348.815</ele>
        <time>2021-02-21T13:56:35Z</time>
      </trkpt>
      <trkpt lat="44.56903" lon="1.57998">
        <ele>350.506</ele>
        <time>2021-02-21T13:56:50Z</time>
      </trkpt>
      <trkpt lat="44.5689" lon="1.57892">
        <ele>353.652</ele>
        <time>2021-02-21T13:57:21Z</time>
      </trkpt>
      <trkpt lat="44.56887" lon="1.57854">
        <ele>355.406</ele>
        <time>2021-02-21T13:57:36Z</time>
      </trkpt>
      <trkpt lat="44.5689" lon="1.57816">
        <ele>357.464</ele>
        <time>2021-02-21T13:57:53Z</time>
      </trkpt>
      <trkpt lat="44.5689" lon="1.57787">
        <ele>359.253</ele>
        <time>2021-02-21T13:58:08Z</time>
      </trkpt>
      <trkpt lat="44.56876" lon="1.57784">
        <ele>360.411</ele>
        <time>2021-02-21T13:58:18Z</time>
      </trkpt>
      <trkpt lat="44.56853" lon="1.57783">
        <ele>361.589</ele>
        <time>2021-02-21T13:58:32Z</time>
      </trkpt>
      <trkpt lat="44.5682" lon="1.57791">
        <ele>361.085</ele>
        <time>2021-02-21T13:58:51Z</time>
      </trkpt>
      <trkpt lat="44.56775" lon="1.57851">
        <ele>354.865</ele>
        <time>2021-02-21T13:59:01Z</time>
      </trkpt>
      <trkpt lat="44.5673" lon="1.5786">
        <ele>350.531</ele>
        <time>2021-02-21T13:59:07Z</time>
      </trkpt>
      <trkpt lat="44.56696" lon="1.57859">
        <ele>347.635</ele>
        <time>2021-02-21T13:59:12Z</time>
      </trkpt>
      <trkpt lat="44.56659" lon="1.5786">
        <ele>344.298</ele>
        <time>2021-02-21T13:59:20Z</time>
      </trkpt>
      <trkpt lat="44.56607" lon="1.57838">
        <ele>341.767</ele>
        <time>2021-02-21T13:59:30Z</time>
      </trkpt>
      <trkpt lat="44.56576" lon="1.57787">
        <ele>341.689</ele>
        <time>2021-02-21T13:59:41Z</time>
      </trkpt>
      <trkpt lat="44.5653" lon="1.57778">
        <ele>339.989</ele>
        <time>2021-02-21T13:59:52Z</time>
      </trkpt>
      <trkpt lat="44.56448" lon="1.57755">
        <ele>336.052</ele>
        <time>2021-02-21T14:00:08Z</time>
      </trkpt>
      <trkpt lat="44.56406" lon="1.57763">
        <ele>333.72</ele>
        <time>2021-02-21T14:00:14Z</time>
      </trkpt>
      <trkpt lat="44.56369" lon="1.57764">
        <ele>330.937</ele>
        <time>2021-02-21T14:00:19Z</time>
      </trkpt>
      <trkpt lat="44.56297" lon="1.57674">
        <ele>316.947</ele>
        <time>2021-02-21T14:00:32Z</time>
      </trkpt>
      <trkpt lat="44.56222" lon="1.57672">
        <ele>307.294</ele>
        <time>2021-02-21T14:00:41Z</time>
      </trkpt>
      <trkpt lat="44.56175" lon="1.57643">
        <ele>300.698</ele>
        <time>2021-02-21T14:00:47Z</time>
      </trkpt>
      <trkpt lat="44.56133" lon="1.57623">
        <ele>299.132</ele>
        <time>2021-02-21T14:00:53Z</time>
      </trkpt>
      <trkpt lat="44.56102" lon="1.57613">
        <ele>301.418</ele>
        <time>2021-02-21T14:01:04Z</time>
      </trkpt>
      <trkpt lat="44.56055" lon="1.57572">
        <ele>306.769</ele>
        <time>2021-02-21T14:01:33Z</time>
      </trkpt>
      <trkpt lat="44.56035" lon="1.57558">
        <ele>308.21</ele>
        <time>2021-02-21T14:01:45Z</time>
      </trkpt>
      <trkpt lat="44.56017" lon="1.57543">
        <ele>309.215</ele>
        <time>2021-02-21T14:01:59Z</time>
      </trkpt>
      <trkpt lat="44.56" lon="1.57524">
        <ele>310.296</ele>
        <time>2021-02-21T14:02:14Z</time>
      </trkpt>
      <trkpt lat="44.55991" lon="1.57502">
        <ele>311.524</ele>
        <time>2021-02-21T14:02:24Z</time>
      </trkpt>
      <trkpt lat="44.55974" lon="1.57482">
        <ele>311.714</ele>
        <time>2021-02-21T14:02:32Z</time>
      </trkpt>
      <trkpt lat="44.55933" lon="1.57472">
        <ele>309.467</ele>
        <time>2021-02-21T14:02:38Z</time>
      </trkpt>
      <trkpt lat="44.5588" lon="1.57443">
        <ele>308.031</ele>
        <time>2021-02-21T14:02:45Z</time>
      </trkpt>
      <trkpt lat="44.55795" lon="1.5742">
        <ele>305.016</ele>
        <time>2021-02-21T14:03:03Z</time>
      </trkpt>
      <trkpt lat="44.55748" lon="1.57347">
        <ele>302.103</ele>
        <time>2021-02-21T14:03:21Z</time>
      </trkpt>
      <trkpt lat="44.55705" lon="1.57486">
        <ele>298.81</ele>
        <time>2021-02-21T14:03:43Z</time>
      </trkpt>
      <trkpt lat="44.55668" lon="1.57634">
        <ele>288.63</ele>
        <time>2021-02-21T14:04:00Z</time>
      </trkpt>
      <trkpt lat="44.55651" lon="1.57722">
        <ele>281.692</ele>
        <time>2021-02-21T14:04:08Z</time>
      </trkpt>
      <trkpt lat="44.55668" lon="1.57803">
        <ele>278.817</ele>
        <time>2021-02-21T14:04:14Z</time>
      </trkpt>
      <trkpt lat="44.55663" lon="1.57877">
        <ele>280.379</ele>
        <time>2021-02-21T14:04:21Z</time>
      </trkpt>
      <trkpt lat="44.55718" lon="1.5785">
        <ele>282.152</ele>
        <time>2021-02-21T14:04:28Z</time>
      </trkpt>
      <trkpt lat="44.55763" lon="1.57835">
        <ele>284.756</ele>
        <time>2021-02-21T14:04:57Z</time>
      </trkpt>
      <trkpt lat="44.55806" lon="1.5784">
        <ele>287.664</ele>
        <time>2021-02-21T14:05:15Z</time>
      </trkpt>
      <trkpt lat="44.55858" lon="1.57855">
        <ele>291.013</ele>
        <time>2021-02-21T14:05:32Z</time>
      </trkpt>
      <trkpt lat="44.55891" lon="1.57895">
        <ele>293.779</ele>
        <time>2021-02-21T14:06:20Z</time>
      </trkpt>
      <trkpt lat="44.55906" lon="1.57922">
        <ele>296.009</ele>
        <time>2021-02-21T14:06:51Z</time>
      </trkpt>
      <trkpt lat="44.55924" lon="1.57975">
        <ele>299.744</ele>
        <time>2021-02-21T14:07:36Z</time>
      </trkpt>
      <trkpt lat="44.56027" lon="1.58096">
        <ele>306.617</ele>
        <time>2021-02-21T14:08:22Z</time>
      </trkpt>
      <trkpt lat="44.56029" lon="1.58147">
        <ele>304.522</ele>
        <time>2021-02-21T14:08:40Z</time>
      </trkpt>
      <trkpt lat="44.55985" lon="1.58127">
        <ele>303.807</ele>
        <time>2021-02-21T14:08:54Z</time>
      </trkpt>
      <trkpt lat="44.5596" lon="1.58124">
        <ele>302.87</ele>
        <time>2021-02-21T14:09:05Z</time>
      </trkpt>
      <trkpt lat="44.55926" lon="1.58133">
        <ele>302.244</ele>
        <time>2021-02-21T14:09:23Z</time>
      </trkpt>
      <trkpt lat="44.55891" lon="1.58151">
        <ele>300.522</ele>
        <time>2021-02-21T14:09:48Z</time>
      </trkpt>
      <trkpt lat="44.55827" lon="1.58159">
        <ele>298.647</ele>
        <time>2021-02-21T14:10:13Z</time>
      </trkpt>
      <trkpt lat="44.55771" lon="1.58177">
        <ele>297.631</ele>
        <time>2021-02-21T14:11:07Z</time>
      </trkpt>
      <trkpt lat="44.557" lon="1.58178">
        <ele>298.275</ele>
        <time>2021-02-21T14:11:28Z</time>
      </trkpt>
      <trkpt lat="44.5566" lon="1.58169">
        <ele>299.207</ele>
        <time>2021-02-21T14:11:49Z</time>
      </trkpt>
      <trkpt lat="44.5561" lon="1.58189">
        <ele>295.69</ele>
        <time>2021-02-21T14:12:02Z</time>
      </trkpt>
      <trkpt lat="44.55586" lon="1.58187">
        <ele>294.07</ele>
        <time>2021-02-21T14:12:16Z</time>
      </trkpt>
      <trkpt lat="44.55585" lon="1.58215">
        <ele>291.274</ele>
        <time>2021-02-21T14:12:27Z</time>
      </trkpt>
      <trkpt lat="44.55565" lon="1.58242">
        <ele>286.832</ele>
        <time>2021-02-21T14:12:44Z</time>
      </trkpt>
      <trkpt lat="44.55533" lon="1.58254">
        <ele>284.904</ele>
        <time>2021-02-21T14:13:05Z</time>
      </trkpt>
      <trkpt lat="44.55533" lon="1.5826">
        <ele>284.734</ele>
        <time>2021-02-21T14:13:24Z</time>
      </trkpt>
      <trkpt lat="44.55498" lon="1.58336">
        <ele>280.003</ele>
        <time>2021-02-21T14:14:11Z</time>
      </trkpt>
      <trkpt lat="44.55474" lon="1.58413">
        <ele>276.684</ele>
        <time>2021-02-21T14:14:18Z</time>
      </trkpt>
      <trkpt lat="44.55478" lon="1.58499">
        <ele>276.017</ele>
        <time>2021-02-21T14:14:25Z</time>
      </trkpt>
      <trkpt lat="44.55527" lon="1.58479">
        <ele>276.588</ele>
        <time>2021-02-21T14:14:42Z</time>
      </trkpt>
      <trkpt lat="44.55568" lon="1.58454">
        <ele>277.45</ele>
        <time>2021-02-21T14:15:06Z</time>
      </trkpt>
      <trkpt lat="44.55579" lon="1.58449">
        <ele>277.755</ele>
        <time>2021-02-21T14:15:15Z</time>
      </trkpt>
    </trkseg>
  </trk>
</gpx>